Observation data for Lesley on 11/22/2019      Previous  Date  Next       Current Mesonet Observations  Soil Data  Daily Summary Page  Observations in Plain Language
KLE1 220600Z 29008KT 05/03 A3017 RMK A01 T00470031  RH  090%=      5-min Rain = 0
KLE1 220601Z 29009KT 05/03 A3018 RMK A01 T00470032  RH  090%=      5-min Rain = 0
KLE1 220602Z 28009KT 05/03 A3019 RMK A01 T00470032  RH  090%=      5-min Rain = 0
KLE1 220603Z 28010KT 05/03 A3019 RMK A01 T00480032  RH  090%=      5-min Rain = 0
KLE1 220604Z 27010KT 05/03 A302 RMK A01 T00480033  RH  090%=      5-min Rain = 0
KLE1 220605Z 28010KT 05/03 A302 RMK A01 T00480033  RH  090%=      5-min Rain = 0
KLE1 220606Z 28010KT 05/03 A3019 RMK A01 T00480033  RH  090%=      5-min Rain = 0
KLE1 220607Z 29010KT 05/03 A3019 RMK A01 T00480033  RH  090%=      5-min Rain = 0
KLE1 220608Z 30010KT 05/03 A3018 RMK A01 T00480033  RH  090%=      5-min Rain = 0
KLE1 220609Z 30010KT 05/03 A3018 RMK A01 T00480034  RH  090%=      5-min Rain = 0
KLE1 220610Z 31010KT 05/03 A3017 RMK A01 T00480033  RH  090%=      5-min Rain = 0
KLE1 220611Z 32011KT 05/03 A3016 RMK A01 T00480034  RH  091%=      5-min Rain = 0
KLE1 220612Z 33011KT 05/03 A3015 RMK A01 T00480034  RH  091%=      5-min Rain = 0.01
KLE1 220613Z 34011KT 05/03 A3014 RMK A01 T00470033  RH  090%=      5-min Rain = 0
KLE1 220614Z 34010KT 05/03 A3014 RMK A01 T00470033  RH  091%=      5-min Rain = 0
KLE1 220615Z 34010KT 05/03 A3015 RMK A01 T00460033  RH  091%=      5-min Rain = 0
KLE1 220616Z 33009KT 05/03 A3015 RMK A01 T00460033  RH  091%=      5-min Rain = 0
KLE1 220617Z 33010KT 05/03 A3016 RMK A01 T00450032  RH  091%=      5-min Rain = 0
KLE1 220618Z 33009KT 05/03 A3016 RMK A01 T00450031  RH  090%=      5-min Rain = 0
KLE1 220619Z 32008KT 05/03 A3016 RMK A01 T00450030  RH  090%=      5-min Rain = 0.01
KLE1 220620Z 32010KT 04/03 A3016 RMK A01 T00440031  RH  091%=      5-min Rain = 0
KLE1 220621Z 32010KT 04/03 A3016 RMK A01 T00440031  RH  091%=      5-min Rain = 0
KLE1 220622Z 33008KT 04/03 A3016 RMK A01 T00440030  RH  091%=      5-min Rain = 0
KLE1 220623Z 34008KT 04/03 A3015 RMK A01 T00440031  RH  091%=      5-min Rain = 0
KLE1 220624Z 33008KT 04/03 A3016 RMK A01 T00440031  RH  091%=      5-min Rain = 0
KLE1 220625Z 33008KT 04/03 A3016 RMK A01 T00430030  RH  091%=      5-min Rain = 0
KLE1 220626Z 33007KT 04/03 A3016 RMK A01 T00430030  RH  091%=      5-min Rain = 0
KLE1 220627Z 34007KT 04/03 A3015 RMK A01 T00430030  RH  091%=      5-min Rain = 0
KLE1 220628Z 34008KT 04/03 A3015 RMK A01 T00420029  RH  091%=      5-min Rain = 0
KLE1 220629Z 35008KT 04/03 A3015 RMK A01 T00420029  RH  092%=      5-min Rain = 0
KLE1 220630Z 34008KT 04/03 A3015 RMK A01 T00420029  RH  092%=      5-min Rain = 0
KLE1 220631Z 34009KT 04/03 A3014 RMK A01 T00410029  RH  092%=      5-min Rain = 0
KLE1 220632Z 35009KT 04/03 A3014 RMK A01 T00410029  RH  092%=      5-min Rain = 0
KLE1 220633Z 36008KT 04/03 A3014 RMK A01 T00410028  RH  092%=      5-min Rain = 0
KLE1 220634Z 00007KT 04/03 A3013 RMK A01 T00410028  RH  091%=      5-min Rain = 0
KLE1 220635Z 01007KT 04/03 A3013 RMK A01 T00410027  RH  091%=      5-min Rain = 0
KLE1 220636Z 02008KT 04/03 A3013 RMK A01 T00400027  RH  091%=      5-min Rain = 0
KLE1 220637Z 02009KT 04/03 A3013 RMK A01 T00400026  RH  090%=      5-min Rain = 0
KLE1 220638Z 02007KT 04/03 A3013 RMK A01 T00400026  RH  090%=      5-min Rain = 0
KLE1 220639Z 01008KT 04/03 A3013 RMK A01 T00400026  RH  090%=      5-min Rain = 0
KLE1 220640Z 02009KT 04/03 A3014 RMK A01 T00400025  RH  090%=      5-min Rain = 0
KLE1 220641Z 01007KT 04/03 A3014 RMK A01 T00400025  RH  090%=      5-min Rain = 0
KLE1 220642Z 36006KT 04/03 A3014 RMK A01 T00400025  RH  090%=      5-min Rain = 0
KLE1 220643Z 36007KT 04/03 A3014 RMK A01 T00400025  RH  090%=      5-min Rain = 0
KLE1 220644Z 00006KT 04/03 A3014 RMK A01 T00390025  RH  091%=      5-min Rain = 0
KLE1 220645Z 00006KT 04/03 A3014 RMK A01 T00390025  RH  091%=      5-min Rain = 0
KLE1 220646Z 00006KT 04/03 A3014 RMK A01 T00390025  RH  091%=      5-min Rain = 0
KLE1 220647Z 00005KT 04/03 A3014 RMK A01 T00390026  RH  091%=      5-min Rain = 0
KLE1 220648Z 01005KT 04/03 A3014 RMK A01 T00390026  RH  091%=      5-min Rain = 0
KLE1 220649Z 00007KT 04/03 A3014 RMK A01 T00390026  RH  091%=      5-min Rain = 0
KLE1 220650Z 01005KT 04/03 A3014 RMK A01 T00390026  RH  091%=      5-min Rain = 0
KLE1 220651Z 36006KT 04/03 A3015 RMK A01 T00390026  RH  091%=      5-min Rain = 0
KLE1 220652Z 35006KT 04/03 A3015 RMK A01 T00390026  RH  091%=      5-min Rain = 0
KLE1 220653Z 34005KT 04/03 A3015 RMK A01 T00390026  RH  091%=      5-min Rain = 0
KLE1 220654Z 34004KT 04/03 A3016 RMK A01 T00390026  RH  091%=      5-min Rain = 0
KLE1 220655Z 34004KT 04/03 A3016 RMK A01 T00390027  RH  092%=      5-min Rain = 0
KLE1 220656Z 34004KT 04/03 A3016 RMK A01 T00390027  RH  092%=      5-min Rain = 0
KLE1 220657Z 34003KT 04/03 A3016 RMK A01 T00390027  RH  092%=      5-min Rain = 0
KLE1 220658Z 35003KT 04/03 A3016 RMK A01 T00390027  RH  092%=      5-min Rain = 0
KLE1 220659Z 00002KT 04/03 A3016 RMK A01 T00390027  RH  092%=      5-min Rain = 0
KLE1 220700Z 04001KT 04/03 A3016 RMK A01 T00400027  RH  092%=      5-min Rain = 0
KLE1 220701Z 03001KT 04/03 A3016 RMK A01 T00390027  RH  092%=      5-min Rain = 0
KLE1 220702Z 03002KT 04/03 A3016 RMK A01 T00400028  RH  092%=      5-min Rain = 0
KLE1 220703Z 04002KT 04/03 A3016 RMK A01 T00400028  RH  092%=      5-min Rain = 0
KLE1 220704Z 04002KT 04/03 A3016 RMK A01 T00400027  RH  091%=      5-min Rain = 0
KLE1 220705Z 05002KT 04/03 A3016 RMK A01 T00400027  RH  091%=      5-min Rain = 0
KLE1 220706Z 05003KT 04/03 A3016 RMK A01 T00400027  RH  091%=      5-min Rain = 0
KLE1 220707Z 04003KT 04/03 A3015 RMK A01 T00400027  RH  091%=      5-min Rain = 0
KLE1 220708Z 04004KT 04/03 A3015 RMK A01 T00400028  RH  092%=      5-min Rain = 0
KLE1 220709Z 03006KT 04/03 A3014 RMK A01 T00400028  RH  092%=      5-min Rain = 0
KLE1 220710Z 03007KT 04/03 A3013 RMK A01 T00410028  RH  092%=      5-min Rain = 0
KLE1 220711Z 03008KT 04/03 A3013 RMK A01 T00400028  RH  092%=      5-min Rain = 0
KLE1 220712Z 03009KT 04/03 A3012 RMK A01 T00410029  RH  092%=      5-min Rain = 0
KLE1 220713Z 03009KT 04/03 A3012 RMK A01 T00400028  RH  092%=      5-min Rain = 0
KLE1 220714Z 04009KT 04/03 A3012 RMK A01 T00410029  RH  092%=      5-min Rain = 0
KLE1 220715Z 04008KT 04/03 A3012 RMK A01 T00400028  RH  092%=      5-min Rain = 0
KLE1 220716Z 03008KT 04/03 A3012 RMK A01 T00400028  RH  092%=      5-min Rain = 0
KLE1 220717Z 04009KT 04/03 A3012 RMK A01 T00410029  RH  092%=      5-min Rain = 0
KLE1 220718Z 05009KT 04/03 A3011 RMK A01 T00400029  RH  092%=      5-min Rain = 0
KLE1 220719Z 06011KT 04/03 A3011 RMK A01 T00400028  RH  092%=      5-min Rain = 0
KLE1 220720Z 06011KT 04/03 A3011 RMK A01 T00390028  RH  092%=      5-min Rain = 0
KLE1 220721Z 06011KT 04/03 A3011 RMK A01 T00390028  RH  092%=      5-min Rain = 0
KLE1 220722Z 06008KT 04/03 A3011 RMK A01 T00390027  RH  092%=      5-min Rain = 0
KLE1 220723Z 05007KT 04/03 A3012 RMK A01 T00390028  RH  093%=      5-min Rain = 0
KLE1 220724Z 05008KT 04/03 A3012 RMK A01 T00380028  RH  093%=      5-min Rain = 0
KLE1 220725Z 06007KT 04/03 A3011 RMK A01 T00380027  RH  093%=      5-min Rain = 0
KLE1 220726Z 06008KT 04/03 A3011 RMK A01 T00380027  RH  093%=      5-min Rain = 0
KLE1 220727Z 05007KT 04/03 A3011 RMK A01 T00370026  RH  092%=      5-min Rain = 0
KLE1 220728Z 05006KT 04/03 A3012 RMK A01 T00370026  RH  092%=      5-min Rain = 0
KLE1 220729Z 05005KT 04/03 A3012 RMK A01 T00370026  RH  092%=      5-min Rain = 0
KLE1 220730Z 05004KT 04/03 A3012 RMK A01 T00370025  RH  092%=      5-min Rain = 0.01
KLE1 220731Z 05003KT 04/03 A3012 RMK A01 T00370025  RH  092%=      5-min Rain = 0
KLE1 220732Z 05003KT 04/03 A3012 RMK A01 T00370025  RH  092%=      5-min Rain = 0
KLE1 220733Z 05004KT 04/03 A3012 RMK A01 T00360025  RH  092%=      5-min Rain = 0
KLE1 220734Z 06004KT 04/02 A3012 RMK A01 T00360024  RH  092%=      5-min Rain = 0
KLE1 220735Z 07005KT 04/02 A3012 RMK A01 T00360024  RH  092%=      5-min Rain = 0
KLE1 220736Z 07006KT 04/03 A3011 RMK A01 T00360025  RH  093%=      5-min Rain = 0
KLE1 220737Z 07006KT 04/03 A3011 RMK A01 T00360025  RH  093%=      5-min Rain = 0
KLE1 220738Z 07006KT 04/03 A3011 RMK A01 T00360025  RH  093%=      5-min Rain = 0
KLE1 220739Z 06006KT 04/03 A3011 RMK A01 T00350025  RH  093%=      5-min Rain = 0
KLE1 220740Z 06006KT 04/03 A3011 RMK A01 T00350025  RH  093%=      5-min Rain = 0
KLE1 220741Z 06006KT 04/03 A301 RMK A01 T00350025  RH  093%=      5-min Rain = 0
KLE1 220742Z 06006KT 04/03 A301 RMK A01 T00350025  RH  093%=      5-min Rain = 0
KLE1 220743Z 05007KT 04/03 A301 RMK A01 T00350025  RH  093%=      5-min Rain = 0
KLE1 220744Z 05007KT 04/02 A301 RMK A01 T00350024  RH  093%=      5-min Rain = 0
KLE1 220745Z 05008KT 04/02 A3009 RMK A01 T00350024  RH  093%=      5-min Rain = 0
KLE1 220746Z 04007KT 04/02 A3009 RMK A01 T00350024  RH  093%=      5-min Rain = 0
KLE1 220747Z 04007KT 03/02 A3009 RMK A01 T00340024  RH  093%=      5-min Rain = 0
KLE1 220748Z 05007KT 03/02 A3009 RMK A01 T00340024  RH  093%=      5-min Rain = 0
KLE1 220749Z 05007KT 03/02 A3009 RMK A01 T00340024  RH  093%=      5-min Rain = 0
KLE1 220750Z 06007KT 03/02 A3009 RMK A01 T00340024  RH  093%=      5-min Rain = 0
KLE1 220751Z 06009KT 03/02 A3009 RMK A01 T00340024  RH  093%=      5-min Rain = 0
KLE1 220752Z 06009KT 03/02 A3009 RMK A01 T00340024  RH  093%=      5-min Rain = 0
KLE1 220753Z 06009KT 03/02 A3009 RMK A01 T00340024  RH  093%=      5-min Rain = 0
KLE1 220754Z 06010KT 03/03 A3008 RMK A01 T00340025  RH  093%=      5-min Rain = 0
KLE1 220755Z 05010KT 03/02 A3008 RMK A01 T00340024  RH  093%=      5-min Rain = 0
KLE1 220756Z 06009KT 03/02 A3008 RMK A01 T00340024  RH  093%=      5-min Rain = 0
KLE1 220757Z 06008KT 04/03 A3008 RMK A01 T00350025  RH  093%=      5-min Rain = 0
KLE1 220758Z 06007KT 03/02 A3008 RMK A01 T00340024  RH  093%=      5-min Rain = 0
KLE1 220759Z 06008KT 04/03 A3009 RMK A01 T00350025  RH  093%=      5-min Rain = 0
KLE1 220800Z 05007KT 04/03 A3009 RMK A01 T00350025  RH  093%=      5-min Rain = 0
KLE1 220801Z 06006KT 04/03 A3009 RMK A01 T00350025  RH  093%=      5-min Rain = 0
KLE1 220802Z 06007KT 03/02 A3009 RMK A01 T00340024  RH  093%=      5-min Rain = 0
KLE1 220803Z 06007KT 04/03 A301 RMK A01 T00350025  RH  093%=      5-min Rain = 0
KLE1 220804Z 06006KT 04/02 A301 RMK A01 T00350024  RH  092%=      5-min Rain = 0
KLE1 220805Z 07005KT 04/02 A301 RMK A01 T00360024  RH  092%=      5-min Rain = 0
KLE1 220806Z 07006KT 04/02 A301 RMK A01 T00360024  RH  092%=      5-min Rain = 0
KLE1 220807Z 08006KT 04/02 A3011 RMK A01 T00350024  RH  092%=      5-min Rain = 0
KLE1 220808Z 07006KT 04/02 A3011 RMK A01 T00350023  RH  092%=      5-min Rain = 0
KLE1 220809Z 07005KT 04/02 A3011 RMK A01 T00360024  RH  092%=      5-min Rain = 0
KLE1 220810Z 07005KT 04/02 A3011 RMK A01 T00360024  RH  092%=      5-min Rain = 0
KLE1 220811Z 07005KT 04/02 A3012 RMK A01 T00360023  RH  091%=      5-min Rain = 0
KLE1 220812Z 06004KT 04/02 A3012 RMK A01 T00360022  RH  091%=      5-min Rain = 0
KLE1 220813Z 06005KT 04/02 A3012 RMK A01 T00360023  RH  091%=      5-min Rain = 0
KLE1 220814Z 07005KT 04/02 A3012 RMK A01 T00360022  RH  091%=      5-min Rain = 0
KLE1 220815Z 07005KT 04/02 A3012 RMK A01 T00370022  RH  091%=      5-min Rain = 0
KLE1 220816Z 06004KT 04/02 A3012 RMK A01 T00360022  RH  091%=      5-min Rain = 0
KLE1 220817Z 06005KT 04/02 A3012 RMK A01 T00360023  RH  091%=      5-min Rain = 0
KLE1 220818Z 06006KT 04/02 A3012 RMK A01 T00360023  RH  091%=      5-min Rain = 0
KLE1 220819Z 04004KT 04/02 A3012 RMK A01 T00360023  RH  091%=      5-min Rain = 0
KLE1 220820Z 02004KT 04/02 A3013 RMK A01 T00370023  RH  091%=      5-min Rain = 0
KLE1 220821Z 03003KT 04/02 A3013 RMK A01 T00360023  RH  091%=      5-min Rain = 0
KLE1 220822Z 02003KT 04/02 A3014 RMK A01 T00370023  RH  091%=      5-min Rain = 0
KLE1 220823Z 03003KT 04/02 A3014 RMK A01 T00370024  RH  091%=      5-min Rain = 0
KLE1 220824Z 36003KT 04/02 A3014 RMK A01 T00370024  RH  091%=      5-min Rain = 0
KLE1 220825Z 00004KT 04/02 A3015 RMK A01 T00360023  RH  091%=      5-min Rain = 0
KLE1 220826Z 01003KT 04/02 A3015 RMK A01 T00360023  RH  091%=      5-min Rain = 0
KLE1 220827Z 02003KT 04/02 A3015 RMK A01 T00370022  RH  090%=      5-min Rain = 0
KLE1 220828Z 35003KT 04/02 A3015 RMK A01 T00370022  RH  090%=      5-min Rain = 0
KLE1 220829Z 33004KT 04/02 A3015 RMK A01 T00370023  RH  091%=      5-min Rain = 0
KLE1 220830Z 33004KT 04/02 A3016 RMK A01 T00370023  RH  091%=      5-min Rain = 0
KLE1 220831Z 32005KT 04/02 A3016 RMK A01 T00370024  RH  091%=      5-min Rain = 0
KLE1 220832Z 32005KT 04/02 A3017 RMK A01 T00370024  RH  091%=      5-min Rain = 0
KLE1 220833Z 33007KT 04/02 A3017 RMK A01 T00370024  RH  091%=      5-min Rain = 0
KLE1 220834Z 32006KT 04/02 A3017 RMK A01 T00370024  RH  091%=      5-min Rain = 0
KLE1 220835Z 32006KT 04/02 A3017 RMK A01 T00370024  RH  091%=      5-min Rain = 0
KLE1 220836Z 32006KT 04/02 A3017 RMK A01 T00370024  RH  091%=      5-min Rain = 0
KLE1 220837Z 32006KT 04/03 A3017 RMK A01 T00370025  RH  092%=      5-min Rain = 0
KLE1 220838Z 32006KT 04/03 A3017 RMK A01 T00370025  RH  092%=      5-min Rain = 0
KLE1 220839Z 31007KT 04/03 A3017 RMK A01 T00370026  RH  092%=      5-min Rain = 0
KLE1 220840Z 33005KT 04/03 A3017 RMK A01 T00370026  RH  092%=      5-min Rain = 0
KLE1 220841Z 32005KT 04/03 A3017 RMK A01 T00370026  RH  093%=      5-min Rain = 0
KLE1 220842Z 33005KT 04/03 A3017 RMK A01 T00370026  RH  093%=      5-min Rain = 0
KLE1 220843Z 32005KT 04/03 A3017 RMK A01 T00370026  RH  092%=      5-min Rain = 0
KLE1 220844Z 32006KT 04/03 A3017 RMK A01 T00370026  RH  093%=      5-min Rain = 0
KLE1 220845Z 32007KT 04/03 A3016 RMK A01 T00370026  RH  092%=      5-min Rain = 0
KLE1 220846Z 35007KT 04/03 A3016 RMK A01 T00370025  RH  092%=      5-min Rain = 0
KLE1 220847Z 35006KT 04/02 A3016 RMK A01 T00370024  RH  092%=      5-min Rain = 0
KLE1 220848Z 01005KT 04/02 A3015 RMK A01 T00370024  RH  091%=      5-min Rain = 0
KLE1 220849Z 02006KT 04/02 A3014 RMK A01 T00370024  RH  091%=      5-min Rain = 0
KLE1 220850Z 02007KT 04/02 A3014 RMK A01 T00370024  RH  092%=      5-min Rain = 0
KLE1 220851Z 01007KT 04/02 A3014 RMK A01 T00370024  RH  092%=      5-min Rain = 0
KLE1 220852Z 36008KT 04/02 A3014 RMK A01 T00370024  RH  092%=      5-min Rain = 0
KLE1 220853Z 35008KT 04/02 A3015 RMK A01 T00360024  RH  092%=      5-min Rain = 0
KLE1 220854Z 35007KT 04/03 A3015 RMK A01 T00370025  RH  092%=      5-min Rain = 0
KLE1 220855Z 34009KT 04/02 A3016 RMK A01 T00370024  RH  092%=      5-min Rain = 0
KLE1 220856Z 34009KT 04/02 A3016 RMK A01 T00370024  RH  091%=      5-min Rain = 0
KLE1 220857Z 34006KT 04/02 A3016 RMK A01 T00370023  RH  090%=      5-min Rain = 0
KLE1 220858Z 34006KT 04/02 A3015 RMK A01 T00370024  RH  091%=      5-min Rain = 0
KLE1 220859Z 33007KT 04/03 A3015 RMK A01 T00370025  RH  092%=      5-min Rain = 0
KLE1 220900Z 33009KT 04/03 A3015 RMK A01 T00370026  RH  092%=      5-min Rain = 0
KLE1 220901Z 32009KT 04/03 A3016 RMK A01 T00370026  RH  092%=      5-min Rain = 0
KLE1 220902Z 32011KT 04/03 A3016 RMK A01 T00380026  RH  092%=      5-min Rain = 0
KLE1 220903Z 32011KT 04/03 A3016 RMK A01 T00370026  RH  092%=      5-min Rain = 0
KLE1 220904Z 33011KT 04/03 A3016 RMK A01 T00370026  RH  092%=      5-min Rain = 0
KLE1 220905Z 33011KT 04/03 A3015 RMK A01 T00370025  RH  092%=      5-min Rain = 0
KLE1 220906Z 34013KT 04/02 A3015 RMK A01 T00360024  RH  092%=      5-min Rain = 0
KLE1 220907Z 34013KT 04/02 A3015 RMK A01 T00360023  RH  091%=      5-min Rain = 0
KLE1 220908Z 34011KT 04/02 A3014 RMK A01 T00360022  RH  091%=      5-min Rain = 0
KLE1 220909Z 35011KT 04/02 A3014 RMK A01 T00350022  RH  091%=      5-min Rain = 0
KLE1 220910Z 35011KT 04/02 A3014 RMK A01 T00350023  RH  092%=      5-min Rain = 0
KLE1 220911Z 34011KT 04/02 A3014 RMK A01 T00350023  RH  092%=      5-min Rain = 0
KLE1 220912Z 34010KT 04/02 A3014 RMK A01 T00350023  RH  092%=      5-min Rain = 0
KLE1 220913Z 34010KT 04/02 A3014 RMK A01 T00350024  RH  092%=      5-min Rain = 0
KLE1 220914Z 34014KT 04/02 A3014 RMK A01 T00350023  RH  092%=      5-min Rain = 0
KLE1 220915Z 34014KT 04/02 A3015 RMK A01 T00350022  RH  092%=      5-min Rain = 0
KLE1 220916Z 34013KT 04/02 A3015 RMK A01 T00350022  RH  091%=      5-min Rain = 0
KLE1 220917Z 34012KT 04/02 A3015 RMK A01 T00350022  RH  091%=      5-min Rain = 0
KLE1 220918Z 34012KT 04/02 A3015 RMK A01 T00350022  RH  091%=      5-min Rain = 0
KLE1 220919Z 35011KT 03/02 A3015 RMK A01 T00340021  RH  091%=      5-min Rain = 0
KLE1 220920Z 36009KT 03/02 A3015 RMK A01 T00340022  RH  092%=      5-min Rain = 0
KLE1 220921Z 35011KT 03/02 A3015 RMK A01 T00340022  RH  092%=      5-min Rain = 0
KLE1 220922Z 35012KT 03/02 A3015 RMK A01 T00340022  RH  092%=      5-min Rain = 0
KLE1 220923Z 35013KT 03/02 A3015 RMK A01 T00340021  RH  091%=      5-min Rain = 0
KLE1 220924Z 35013KT 03/02 A3015 RMK A01 T00340020  RH  090%=      5-min Rain = 0
KLE1 220925Z 36011KT 03/02 A3015 RMK A01 T00340019  RH  090%=      5-min Rain = 0
KLE1 220926Z 36010KT 03/02 A3015 RMK A01 T00340019  RH  090%=      5-min Rain = 0
KLE1 220927Z 36009KT 03/02 A3015 RMK A01 T00340019  RH  090%=      5-min Rain = 0
KLE1 220928Z 36010KT 03/02 A3015 RMK A01 T00340019  RH  090%=      5-min Rain = 0
KLE1 220929Z 00011KT 03/02 A3015 RMK A01 T00340019  RH  090%=      5-min Rain = 0
KLE1 220930Z 36008KT 03/02 A3015 RMK A01 T00340019  RH  090%=      5-min Rain = 0
KLE1 220931Z 36009KT 03/02 A3015 RMK A01 T00340019  RH  090%=      5-min Rain = 0
KLE1 220932Z 35008KT 03/02 A3015 RMK A01 T00340019  RH  090%=      5-min Rain = 0
KLE1 220933Z 36008KT 03/02 A3016 RMK A01 T00340019  RH  090%=      5-min Rain = 0
KLE1 220934Z 36008KT 03/02 A3016 RMK A01 T00340019  RH  090%=      5-min Rain = 0
KLE1 220935Z 35008KT 03/02 A3016 RMK A01 T00340020  RH  091%=      5-min Rain = 0
KLE1 220936Z 35008KT 03/02 A3016 RMK A01 T00340020  RH  091%=      5-min Rain = 0
KLE1 220937Z 35009KT 03/02 A3016 RMK A01 T00340020  RH  091%=      5-min Rain = 0
KLE1 220938Z 35009KT 03/02 A3016 RMK A01 T00340020  RH  091%=      5-min Rain = 0
KLE1 220939Z 35010KT 03/02 A3016 RMK A01 T00340020  RH  091%=      5-min Rain = 0
KLE1 220940Z 35009KT 03/02 A3016 RMK A01 T00340019  RH  090%=      5-min Rain = 0
KLE1 220941Z 35008KT 03/02 A3016 RMK A01 T00340019  RH  090%=      5-min Rain = 0
KLE1 220942Z 34007KT 03/02 A3016 RMK A01 T00340020  RH  091%=      5-min Rain = 0
KLE1 220943Z 35007KT 03/02 A3016 RMK A01 T00340020  RH  091%=      5-min Rain = 0
KLE1 220944Z 35007KT 03/02 A3017 RMK A01 T00340021  RH  091%=      5-min Rain = 0
KLE1 220945Z 34007KT 03/02 A3017 RMK A01 T00340021  RH  091%=      5-min Rain = 0
KLE1 220946Z 35007KT 03/02 A3017 RMK A01 T00340021  RH  091%=      5-min Rain = 0
KLE1 220947Z 35008KT 03/02 A3017 RMK A01 T00340021  RH  091%=      5-min Rain = 0
KLE1 220948Z 34007KT 03/02 A3017 RMK A01 T00340020  RH  091%=      5-min Rain = 0
KLE1 220949Z 35008KT 03/02 A3016 RMK A01 T00340020  RH  091%=      5-min Rain = 0
KLE1 220950Z 34006KT 03/02 A3016 RMK A01 T00340021  RH  091%=      5-min Rain = 0
KLE1 220951Z 34007KT 03/02 A3016 RMK A01 T00340021  RH  091%=      5-min Rain = 0
KLE1 220952Z 34009KT 03/02 A3017 RMK A01 T00340021  RH  091%=      5-min Rain = 0
KLE1 220953Z 33008KT 03/02 A3017 RMK A01 T00340021  RH  091%=      5-min Rain = 0
KLE1 220954Z 34008KT 03/02 A3017 RMK A01 T00340020  RH  091%=      5-min Rain = 0
KLE1 220955Z 34007KT 04/02 A3016 RMK A01 T00350021  RH  091%=      5-min Rain = 0
KLE1 220956Z 34008KT 04/02 A3016 RMK A01 T00350021  RH  091%=      5-min Rain = 0
KLE1 220957Z 34008KT 04/02 A3016 RMK A01 T00350021  RH  091%=      5-min Rain = 0
KLE1 220958Z 34009KT 04/02 A3016 RMK A01 T00350021  RH  091%=      5-min Rain = 0
KLE1 220959Z 34010KT 04/02 A3016 RMK A01 T00350022  RH  091%=      5-min Rain = 0
KLE1 221000Z 34012KT 04/02 A3016 RMK A01 T00350021  RH  090%=      5-min Rain = 0
KLE1 221001Z 35011KT 04/02 A3016 RMK A01 T00350020  RH  090%=      5-min Rain = 0
KLE1 221002Z 34011KT 04/02 A3016 RMK A01 T00350020  RH  090%=      5-min Rain = 0
KLE1 221003Z 34010KT 04/02 A3016 RMK A01 T00350020  RH  090%=      5-min Rain = 0
KLE1 221004Z 35010KT 04/02 A3016 RMK A01 T00350020  RH  090%=      5-min Rain = 0
KLE1 221005Z 35011KT 04/02 A3016 RMK A01 T00350020  RH  090%=      5-min Rain = 0
KLE1 221006Z 34011KT 04/02 A3016 RMK A01 T00350020  RH  090%=      5-min Rain = 0
KLE1 221007Z 34010KT 04/02 A3017 RMK A01 T00350020  RH  089%=      5-min Rain = 0
KLE1 221008Z 35010KT 04/02 A3017 RMK A01 T00350019  RH  089%=      5-min Rain = 0
KLE1 221009Z 35011KT 04/02 A3016 RMK A01 T00350020  RH  090%=      5-min Rain = 0
KLE1 221010Z 35012KT 04/02 A3016 RMK A01 T00350019  RH  089%=      5-min Rain = 0
KLE1 221011Z 35011KT 04/02 A3016 RMK A01 T00350019  RH  089%=      5-min Rain = 0
KLE1 221012Z 35010KT 04/02 A3017 RMK A01 T00350019  RH  089%=      5-min Rain = 0
KLE1 221013Z 35011KT 04/02 A3017 RMK A01 T00350019  RH  089%=      5-min Rain = 0
KLE1 221014Z 35010KT 04/02 A3017 RMK A01 T00350019  RH  089%=      5-min Rain = 0
KLE1 221015Z 35010KT 04/02 A3017 RMK A01 T00350019  RH  089%=      5-min Rain = 0
KLE1 221016Z 35011KT 04/02 A3017 RMK A01 T00350019  RH  089%=      5-min Rain = 0
KLE1 221017Z 36010KT 04/02 A3017 RMK A01 T00350018  RH  089%=      5-min Rain = 0
KLE1 221018Z 36010KT 04/02 A3017 RMK A01 T00350018  RH  089%=      5-min Rain = 0
KLE1 221019Z 36009KT 04/02 A3017 RMK A01 T00350018  RH  089%=      5-min Rain = 0
KLE1 221020Z 36008KT 03/02 A3017 RMK A01 T00340018  RH  089%=      5-min Rain = 0
KLE1 221021Z 00009KT 03/02 A3016 RMK A01 T00340018  RH  089%=      5-min Rain = 0
KLE1 221022Z 35010KT 03/02 A3016 RMK A01 T00340018  RH  089%=      5-min Rain = 0
KLE1 221023Z 36010KT 03/02 A3016 RMK A01 T00340016  RH  088%=      5-min Rain = 0
KLE1 221024Z 00010KT 03/02 A3016 RMK A01 T00340016  RH  088%=      5-min Rain = 0
KLE1 221025Z 01009KT 03/02 A3016 RMK A01 T00340016  RH  088%=      5-min Rain = 0
KLE1 221026Z 36009KT 03/02 A3016 RMK A01 T00330016  RH  089%=      5-min Rain = 0
KLE1 221027Z 01009KT 03/02 A3016 RMK A01 T00330016  RH  089%=      5-min Rain = 0
KLE1 221028Z 01012KT 03/02 A3016 RMK A01 T00330016  RH  089%=      5-min Rain = 0
KLE1 221029Z 36014KT 03/02 A3016 RMK A01 T00330015  RH  088%=      5-min Rain = 0
KLE1 221030Z 36012KT 03/01 A3016 RMK A01 T00330014  RH  087%=      5-min Rain = 0
KLE1 221031Z 35010KT 03/01 A3016 RMK A01 T00330014  RH  088%=      5-min Rain = 0
KLE1 221032Z 36009KT 03/02 A3016 RMK A01 T00330015  RH  088%=      5-min Rain = 0
KLE1 221033Z 36010KT 03/02 A3016 RMK A01 T00320015  RH  089%=      5-min Rain = 0
KLE1 221034Z 00011KT 03/01 A3016 RMK A01 T00320014  RH  088%=      5-min Rain = 0
KLE1 221035Z 35009KT 03/01 A3016 RMK A01 T00320014  RH  088%=      5-min Rain = 0
KLE1 221036Z 36008KT 03/02 A3017 RMK A01 T00320015  RH  089%=      5-min Rain = 0
KLE1 221037Z 00009KT 03/02 A3017 RMK A01 T00320015  RH  089%=      5-min Rain = 0
KLE1 221038Z 00008KT 03/02 A3017 RMK A01 T00320015  RH  089%=      5-min Rain = 0
KLE1 221039Z 00006KT 03/01 A3017 RMK A01 T00320014  RH  088%=      5-min Rain = 0
KLE1 221040Z 01007KT 03/01 A3017 RMK A01 T00320014  RH  088%=      5-min Rain = 0
KLE1 221041Z 00008KT 03/01 A3017 RMK A01 T00320014  RH  088%=      5-min Rain = 0
KLE1 221042Z 35008KT 03/01 A3017 RMK A01 T00320014  RH  088%=      5-min Rain = 0
KLE1 221043Z 36007KT 03/01 A3017 RMK A01 T00320014  RH  088%=      5-min Rain = 0
KLE1 221044Z 00006KT 03/02 A3017 RMK A01 T00320015  RH  088%=      5-min Rain = 0
KLE1 221045Z 36006KT 03/02 A3017 RMK A01 T00330016  RH  089%=      5-min Rain = 0
KLE1 221046Z 36007KT 03/02 A3017 RMK A01 T00320016  RH  089%=      5-min Rain = 0
KLE1 221047Z 00006KT 03/02 A3017 RMK A01 T00320016  RH  089%=      5-min Rain = 0
KLE1 221048Z 36007KT 03/02 A3017 RMK A01 T00320017  RH  090%=      5-min Rain = 0
KLE1 221049Z 35007KT 03/02 A3017 RMK A01 T00320016  RH  090%=      5-min Rain = 0
KLE1 221050Z 35006KT 03/02 A3017 RMK A01 T00320016  RH  090%=      5-min Rain = 0
KLE1 221051Z 35006KT 03/02 A3017 RMK A01 T00320016  RH  090%=      5-min Rain = 0
KLE1 221052Z 35007KT 03/02 A3017 RMK A01 T00320017  RH  090%=      5-min Rain = 0
KLE1 221053Z 35007KT 03/02 A3017 RMK A01 T00320017  RH  090%=      5-min Rain = 0
KLE1 221054Z 35006KT 03/02 A3017 RMK A01 T00320016  RH  090%=      5-min Rain = 0
KLE1 221055Z 34008KT 03/02 A3017 RMK A01 T00320017  RH  090%=      5-min Rain = 0
KLE1 221056Z 35008KT 03/02 A3017 RMK A01 T00320017  RH  090%=      5-min Rain = 0
KLE1 221057Z 34009KT 03/02 A3017 RMK A01 T00320016  RH  090%=      5-min Rain = 0
KLE1 221058Z 35009KT 03/02 A3016 RMK A01 T00320016  RH  089%=      5-min Rain = 0
KLE1 221059Z 36010KT 03/02 A3016 RMK A01 T00320016  RH  089%=      5-min Rain = 0
KLE1 221100Z 35010KT 03/02 A3016 RMK A01 T00320015  RH  089%=      5-min Rain = 0
KLE1 221101Z 34013KT 03/02 A3016 RMK A01 T00320015  RH  089%=      5-min Rain = 0
KLE1 221102Z 34011KT 03/02 A3016 RMK A01 T00320015  RH  088%=      5-min Rain = 0
KLE1 221103Z 34011KT 03/02 A3016 RMK A01 T00320015  RH  088%=      5-min Rain = 0
KLE1 221104Z 34010KT 03/02 A3016 RMK A01 T00320015  RH  088%=      5-min Rain = 0
KLE1 221105Z 35010KT 03/02 A3016 RMK A01 T00320015  RH  089%=      5-min Rain = 0
KLE1 221106Z 35009KT 03/02 A3016 RMK A01 T00320015  RH  089%=      5-min Rain = 0
KLE1 221107Z 35009KT 03/02 A3016 RMK A01 T00320015  RH  089%=      5-min Rain = 0
KLE1 221108Z 34009KT 03/02 A3016 RMK A01 T00320016  RH  089%=      5-min Rain = 0
KLE1 221109Z 34007KT 03/02 A3016 RMK A01 T00320015  RH  089%=      5-min Rain = 0
KLE1 221110Z 34007KT 03/02 A3016 RMK A01 T00320016  RH  089%=      5-min Rain = 0
KLE1 221111Z 35009KT 03/02 A3017 RMK A01 T00320015  RH  089%=      5-min Rain = 0
KLE1 221112Z 34008KT 03/02 A3017 RMK A01 T00320015  RH  089%=      5-min Rain = 0
KLE1 221113Z 34007KT 03/01 A3017 RMK A01 T00320014  RH  088%=      5-min Rain = 0
KLE1 221114Z 34007KT 03/01 A3017 RMK A01 T00320014  RH  088%=      5-min Rain = 0
KLE1 221115Z 34008KT 03/01 A3017 RMK A01 T00320014  RH  088%=      5-min Rain = 0
KLE1 221116Z 34008KT 03/01 A3017 RMK A01 T00320014  RH  088%=      5-min Rain = 0
KLE1 221117Z 35009KT 03/01 A3016 RMK A01 T00310014  RH  088%=      5-min Rain = 0
KLE1 221118Z 36007KT 03/01 A3016 RMK A01 T00310013  RH  088%=      5-min Rain = 0
KLE1 221119Z 35007KT 03/01 A3016 RMK A01 T00310014  RH  088%=      5-min Rain = 0
KLE1 221120Z 35007KT 03/01 A3017 RMK A01 T00310014  RH  088%=      5-min Rain = 0
KLE1 221121Z 35007KT 03/01 A3017 RMK A01 T00320014  RH  089%=      5-min Rain = 0
KLE1 221122Z 35007KT 03/01 A3017 RMK A01 T00310014  RH  089%=      5-min Rain = 0
KLE1 221123Z 35007KT 03/01 A3017 RMK A01 T00310014  RH  088%=      5-min Rain = 0
KLE1 221124Z 35007KT 03/01 A3017 RMK A01 T00320014  RH  088%=      5-min Rain = 0
KLE1 221125Z 35008KT 03/01 A3017 RMK A01 T00310014  RH  089%=      5-min Rain = 0
KLE1 221126Z 35008KT 03/01 A3017 RMK A01 T00310014  RH  088%=      5-min Rain = 0
KLE1 221127Z 35008KT 03/01 A3017 RMK A01 T00310013  RH  088%=      5-min Rain = 0
KLE1 221128Z 35009KT 03/01 A3016 RMK A01 T00310013  RH  088%=      5-min Rain = 0
KLE1 221129Z 35008KT 03/01 A3016 RMK A01 T00310013  RH  088%=      5-min Rain = 0
KLE1 221130Z 35008KT 03/01 A3017 RMK A01 T00310013  RH  088%=      5-min Rain = 0
KLE1 221131Z 35008KT 03/01 A3017 RMK A01 T00310014  RH  089%=      5-min Rain = 0
KLE1 221132Z 35009KT 03/01 A3017 RMK A01 T00310014  RH  088%=      5-min Rain = 0
KLE1 221133Z 35010KT 03/01 A3017 RMK A01 T00310013  RH  088%=      5-min Rain = 0
KLE1 221134Z 35008KT 03/01 A3017 RMK A01 T00310013  RH  088%=      5-min Rain = 0
KLE1 221135Z 36008KT 03/01 A3017 RMK A01 T00310014  RH  088%=      5-min Rain = 0
KLE1 221136Z 35008KT 03/01 A3017 RMK A01 T00310014  RH  089%=      5-min Rain = 0
KLE1 221137Z 36007KT 03/01 A3017 RMK A01 T00310014  RH  088%=      5-min Rain = 0
KLE1 221138Z 35006KT 03/01 A3017 RMK A01 T00310014  RH  089%=      5-min Rain = 0
KLE1 221139Z 35009KT 03/02 A3017 RMK A01 T00310016  RH  090%=      5-min Rain = 0
KLE1 221140Z 35009KT 03/02 A3017 RMK A01 T00310015  RH  089%=      5-min Rain = 0
KLE1 221141Z 35011KT 03/01 A3017 RMK A01 T00310014  RH  089%=      5-min Rain = 0
KLE1 221142Z 35011KT 03/01 A3017 RMK A01 T00300012  RH  088%=      5-min Rain = 0
KLE1 221143Z 35011KT 03/01 A3017 RMK A01 T00300011  RH  087%=      5-min Rain = 0
KLE1 221144Z 34010KT 03/01 A3017 RMK A01 T00300010  RH  087%=      5-min Rain = 0
KLE1 221145Z 34009KT 03/01 A3017 RMK A01 T00300010  RH  087%=      5-min Rain = 0
KLE1 221146Z 35008KT 03/01 A3017 RMK A01 T00290011  RH  087%=      5-min Rain = 0
KLE1 221147Z 34007KT 03/01 A3017 RMK A01 T00290010  RH  088%=      5-min Rain = 0
KLE1 221148Z 34010KT 03/01 A3017 RMK A01 T00290012  RH  088%=      5-min Rain = 0
KLE1 221149Z 35010KT 03/01 A3017 RMK A01 T00290010  RH  088%=      5-min Rain = 0
KLE1 221150Z 35009KT 03/01 A3017 RMK A01 T00290009  RH  087%=      5-min Rain = 0
KLE1 221151Z 35009KT 03/01 A3017 RMK A01 T00290009  RH  087%=      5-min Rain = 0
KLE1 221152Z 35010KT 03/01 A3017 RMK A01 T00290009  RH  087%=      5-min Rain = 0
KLE1 221153Z 35008KT 03/01 A3017 RMK A01 T00290008  RH  086%=      5-min Rain = 0
KLE1 221154Z 35008KT 03/01 A3017 RMK A01 T00290009  RH  087%=      5-min Rain = 0
KLE1 221155Z 35008KT 03/01 A3017 RMK A01 T00280009  RH  087%=      5-min Rain = 0
KLE1 221156Z 34009KT 03/01 A3017 RMK A01 T00280009  RH  087%=      5-min Rain = 0
KLE1 221157Z 35010KT 03/01 A3017 RMK A01 T00280009  RH  087%=      5-min Rain = 0
KLE1 221158Z 34009KT 03/01 A3017 RMK A01 T00280009  RH  087%=      5-min Rain = 0
KLE1 221159Z 34010KT 03/01 A3017 RMK A01 T00280009  RH  087%=      5-min Rain = 0
KLE1 221200Z 34008KT 03/01 A3017 RMK A01 T00280009  RH  087%=      5-min Rain = 0
KLE1 221201Z 35008KT 03/01 A3017 RMK A01 T00280009  RH  088%=      5-min Rain = 0
KLE1 221202Z 35009KT 03/01 A3017 RMK A01 T00270009  RH  088%=      5-min Rain = 0
KLE1 221203Z 35010KT 03/01 A3017 RMK A01 T00270009  RH  087%=      5-min Rain = 0
KLE1 221204Z 35010KT 03/01 A3017 RMK A01 T00270007  RH  087%=      5-min Rain = 0
KLE1 221205Z 35010KT 03/01 A3017 RMK A01 T00270006  RH  086%=      5-min Rain = 0
KLE1 221206Z 00009KT 03/01 A3017 RMK A01 T00270006  RH  086%=      5-min Rain = 0
KLE1 221207Z 36009KT 03/01 A3017 RMK A01 T00270006  RH  086%=      5-min Rain = 0
KLE1 221208Z 36008KT 03/01 A3017 RMK A01 T00270005  RH  085%=      5-min Rain = 0
KLE1 221209Z 36008KT 03/01 A3017 RMK A01 T00270005  RH  086%=      5-min Rain = 0
KLE1 221210Z 00008KT 03/01 A3017 RMK A01 T00270005  RH  085%=      5-min Rain = 0
KLE1 221211Z 00009KT 03/01 A3017 RMK A01 T00270005  RH  085%=      5-min Rain = 0
KLE1 221212Z 00008KT 03/00 A3017 RMK A01 T00270004  RH  085%=      5-min Rain = 0
KLE1 221213Z 35008KT 03/01 A3016 RMK A01 T00270005  RH  086%=      5-min Rain = 0
KLE1 221214Z 36009KT 03/01 A3017 RMK A01 T00270006  RH  086%=      5-min Rain = 0
KLE1 221215Z 35009KT 03/01 A3017 RMK A01 T00260005  RH  086%=      5-min Rain = 0
KLE1 221216Z 36008KT 03/01 A3017 RMK A01 T00260006  RH  086%=      5-min Rain = 0
KLE1 221217Z 00007KT 03/01 A3017 RMK A01 T00260006  RH  087%=      5-min Rain = 0
KLE1 221218Z 36006KT 03/01 A3016 RMK A01 T00260006  RH  087%=      5-min Rain = 0
KLE1 221219Z 36006KT 03/01 A3016 RMK A01 T00270007  RH  087%=      5-min Rain = 0
KLE1 221220Z 00006KT 03/01 A3016 RMK A01 T00260007  RH  087%=      5-min Rain = 0
KLE1 221221Z 00005KT 03/01 A3017 RMK A01 T00260007  RH  087%=      5-min Rain = 0
KLE1 221222Z 36006KT 03/01 A3017 RMK A01 T00260008  RH  088%=      5-min Rain = 0
KLE1 221223Z 00007KT 03/01 A3017 RMK A01 T00260008  RH  088%=      5-min Rain = 0
KLE1 221224Z 00007KT 03/01 A3017 RMK A01 T00260007  RH  087%=      5-min Rain = 0
KLE1 221225Z 00007KT 03/01 A3017 RMK A01 T00260007  RH  087%=      5-min Rain = 0
KLE1 221226Z 36007KT 03/01 A3017 RMK A01 T00260007  RH  087%=      5-min Rain = 0
KLE1 221227Z 00007KT 03/01 A3017 RMK A01 T00260007  RH  087%=      5-min Rain = 0
KLE1 221228Z 00006KT 03/01 A3017 RMK A01 T00260006  RH  087%=      5-min Rain = 0
KLE1 221229Z 35007KT 03/01 A3017 RMK A01 T00260007  RH  087%=      5-min Rain = 0
KLE1 221230Z 36007KT 03/01 A3017 RMK A01 T00260007  RH  088%=      5-min Rain = 0
KLE1 221231Z 00005KT 03/01 A3017 RMK A01 T00260008  RH  088%=      5-min Rain = 0
KLE1 221232Z 36006KT 03/01 A3017 RMK A01 T00250007  RH  088%=      5-min Rain = 0
KLE1 221233Z 35006KT 03/01 A3017 RMK A01 T00260007  RH  087%=      5-min Rain = 0
KLE1 221234Z 36006KT 03/01 A3017 RMK A01 T00250006  RH  087%=      5-min Rain = 0
KLE1 221235Z 35006KT 03/01 A3017 RMK A01 T00250007  RH  087%=      5-min Rain = 0
KLE1 221236Z 35007KT 03/01 A3017 RMK A01 T00260008  RH  088%=      5-min Rain = 0
KLE1 221237Z 35008KT 03/01 A3017 RMK A01 T00260007  RH  088%=      5-min Rain = 0
KLE1 221238Z 36009KT 03/01 A3017 RMK A01 T00260007  RH  088%=      5-min Rain = 0
KLE1 221239Z 35008KT 03/01 A3017 RMK A01 T00260007  RH  087%=      5-min Rain = 0
KLE1 221240Z 35009KT 03/01 A3017 RMK A01 T00250006  RH  087%=      5-min Rain = 0
KLE1 221241Z 35009KT 03/01 A3017 RMK A01 T00260006  RH  087%=      5-min Rain = 0
KLE1 221242Z 35008KT 03/01 A3017 RMK A01 T00250006  RH  087%=      5-min Rain = 0
KLE1 221243Z 35008KT 03/01 A3017 RMK A01 T00260006  RH  087%=      5-min Rain = 0
KLE1 221244Z 36008KT 03/01 A3017 RMK A01 T00250006  RH  087%=      5-min Rain = 0
KLE1 221245Z 00009KT 03/01 A3017 RMK A01 T00260006  RH  087%=      5-min Rain = 0
KLE1 221246Z 35008KT 03/01 A3017 RMK A01 T00260007  RH  087%=      5-min Rain = 0
KLE1 221247Z 34008KT 03/01 A3017 RMK A01 T00260008  RH  088%=      5-min Rain = 0
KLE1 221248Z 34009KT 03/01 A3017 RMK A01 T00260008  RH  088%=      5-min Rain = 0
KLE1 221249Z 35008KT 03/01 A3017 RMK A01 T00260007  RH  087%=      5-min Rain = 0
KLE1 221250Z 35008KT 03/01 A3017 RMK A01 T00260007  RH  088%=      5-min Rain = 0
KLE1 221251Z 35008KT 03/01 A3017 RMK A01 T00250007  RH  088%=      5-min Rain = 0
KLE1 221252Z 35008KT 03/01 A3017 RMK A01 T00260007  RH  088%=      5-min Rain = 0
KLE1 221253Z 35007KT 03/01 A3018 RMK A01 T00250007  RH  088%=      5-min Rain = 0
KLE1 221254Z 34006KT 03/01 A3018 RMK A01 T00260007  RH  087%=      5-min Rain = 0
KLE1 221255Z 35006KT 03/01 A3018 RMK A01 T00250007  RH  088%=      5-min Rain = 0
KLE1 221256Z 34006KT 03/01 A3018 RMK A01 T00260008  RH  088%=      5-min Rain = 0
KLE1 221257Z 34007KT 03/01 A3018 RMK A01 T00260008  RH  088%=      5-min Rain = 0
KLE1 221258Z 34008KT 03/01 A3018 RMK A01 T00260007  RH  088%=      5-min Rain = 0
KLE1 221259Z 34009KT 03/01 A3018 RMK A01 T00260006  RH  087%=      5-min Rain = 0
KLE1 221300Z 34007KT 03/01 A3018 RMK A01 T00260006  RH  087%=      5-min Rain = 0
KLE1 221301Z 34008KT 03/01 A3018 RMK A01 T00260007  RH  087%=      5-min Rain = 0
KLE1 221302Z 34009KT 03/01 A3018 RMK A01 T00260008  RH  088%=      5-min Rain = 0
KLE1 221303Z 34010KT 03/01 A3018 RMK A01 T00260006  RH  087%=      5-min Rain = 0
KLE1 221304Z 34008KT 03/01 A3018 RMK A01 T00260005  RH  086%=      5-min Rain = 0
KLE1 221305Z 34011KT 03/01 A3018 RMK A01 T00260005  RH  086%=      5-min Rain = 0
KLE1 221306Z 35010KT 03/00 A3018 RMK A01 T00260004  RH  086%=      5-min Rain = 0
KLE1 221307Z 35008KT 03/00 A3018 RMK A01 T00260004  RH  085%=      5-min Rain = 0
KLE1 221308Z 35008KT 03/01 A3018 RMK A01 T00260005  RH  086%=      5-min Rain = 0
KLE1 221309Z 35010KT 03/01 A3018 RMK A01 T00260005  RH  086%=      5-min Rain = 0
KLE1 221310Z 00009KT 03/00 A3018 RMK A01 T00260004  RH  086%=      5-min Rain = 0
KLE1 221311Z 00008KT 03/01 A3018 RMK A01 T00260005  RH  086%=      5-min Rain = 0
KLE1 221312Z 00007KT 03/01 A3018 RMK A01 T00260005  RH  086%=      5-min Rain = 0
KLE1 221313Z 35006KT 03/01 A3018 RMK A01 T00260006  RH  086%=      5-min Rain = 0
KLE1 221314Z 35007KT 03/01 A3018 RMK A01 T00260006  RH  086%=      5-min Rain = 0
KLE1 221315Z 35006KT 03/01 A3018 RMK A01 T00250005  RH  086%=      5-min Rain = 0
KLE1 221316Z 35005KT 03/01 A3018 RMK A01 T00260005  RH  086%=      5-min Rain = 0
KLE1 221317Z 35007KT 03/01 A3018 RMK A01 T00250006  RH  087%=      5-min Rain = 0
KLE1 221318Z 35006KT 03/01 A3018 RMK A01 T00260006  RH  087%=      5-min Rain = 0
KLE1 221319Z 35007KT 03/01 A3018 RMK A01 T00250005  RH  087%=      5-min Rain = 0
KLE1 221320Z 35008KT 03/00 A3018 RMK A01 T00260004  RH  086%=      5-min Rain = 0
KLE1 221321Z 35007KT 03/00 A3018 RMK A01 T00250003  RH  085%=      5-min Rain = 0
KLE1 221322Z 34007KT 03/00 A3018 RMK A01 T00250004  RH  086%=      5-min Rain = 0
KLE1 221323Z 35006KT 03/00 A3018 RMK A01 T00260004  RH  086%=      5-min Rain = 0
KLE1 221324Z 35007KT 03/01 A3018 RMK A01 T00250005  RH  086%=      5-min Rain = 0
KLE1 221325Z 34008KT 03/00 A3018 RMK A01 T00250004  RH  086%=      5-min Rain = 0
KLE1 221326Z 35008KT 03/00 A3018 RMK A01 T00250003  RH  086%=      5-min Rain = 0
KLE1 221327Z 35006KT 03/00 A3018 RMK A01 T00250003  RH  086%=      5-min Rain = 0
KLE1 221328Z 35006KT 03/01 A3018 RMK A01 T00250005  RH  086%=      5-min Rain = 0
KLE1 221329Z 35007KT 03/01 A3018 RMK A01 T00250005  RH  087%=      5-min Rain = 0
KLE1 221330Z 36007KT 03/01 A3018 RMK A01 T00250005  RH  086%=      5-min Rain = 0
KLE1 221331Z 35006KT 03/00 A3018 RMK A01 T00250004  RH  086%=      5-min Rain = 0
KLE1 221332Z 36007KT 03/01 A3018 RMK A01 T00250006  RH  087%=      5-min Rain = 0
KLE1 221333Z 36008KT 03/01 A3018 RMK A01 T00250005  RH  087%=      5-min Rain = 0
KLE1 221334Z 35007KT 03/00 A3018 RMK A01 T00250004  RH  086%=      5-min Rain = 0
KLE1 221335Z 36007KT 03/00 A3018 RMK A01 T00250003  RH  086%=      5-min Rain = 0
KLE1 221336Z 00005KT 03/00 A3018 RMK A01 T00250003  RH  086%=      5-min Rain = 0
KLE1 221337Z 36005KT 03/00 A3018 RMK A01 T00250004  RH  086%=      5-min Rain = 0
KLE1 221338Z 36006KT 03/00 A3018 RMK A01 T00250004  RH  086%=      5-min Rain = 0
KLE1 221339Z 35007KT 03/00 A3018 RMK A01 T00250004  RH  086%=      5-min Rain = 0
KLE1 221340Z 36006KT 03/00 A3018 RMK A01 T00250003  RH  086%=      5-min Rain = 0
KLE1 221341Z 35005KT 03/00 A3018 RMK A01 T00250003  RH  086%=      5-min Rain = 0
KLE1 221342Z 35004KT 03/00 A3018 RMK A01 T00250004  RH  086%=      5-min Rain = 0
KLE1 221343Z 35003KT 03/01 A3018 RMK A01 T00250005  RH  086%=      5-min Rain = 0
KLE1 221344Z 34003KT 03/01 A3019 RMK A01 T00250005  RH  087%=      5-min Rain = 0
KLE1 221345Z 34003KT 03/01 A3019 RMK A01 T00250006  RH  087%=      5-min Rain = 0
KLE1 221346Z 34003KT 03/01 A3019 RMK A01 T00250006  RH  087%=      5-min Rain = 0
KLE1 221347Z 34004KT 03/01 A3019 RMK A01 T00250005  RH  086%=      5-min Rain = 0
KLE1 221348Z 31004KT 03/01 A3019 RMK A01 T00260005  RH  086%=      5-min Rain = 0
KLE1 221349Z 33006KT 03/01 A3019 RMK A01 T00260005  RH  086%=      5-min Rain = 0
KLE1 221350Z 34006KT 03/00 A3019 RMK A01 T00260003  RH  085%=      5-min Rain = 0
KLE1 221351Z 34005KT 03/00 A3019 RMK A01 T00260003  RH  085%=      5-min Rain = 0
KLE1 221352Z 34004KT 03/00 A3019 RMK A01 T00260002  RH  084%=      5-min Rain = 0
KLE1 221353Z 34003KT 03/00 A3019 RMK A01 T00260003  RH  085%=      5-min Rain = 0
KLE1 221354Z 33004KT 03/00 A3019 RMK A01 T00260004  RH  086%=      5-min Rain = 0
KLE1 221355Z 34004KT 03/00 A3019 RMK A01 T00270004  RH  085%=      5-min Rain = 0
KLE1 221356Z 35005KT 03/00 A3019 RMK A01 T00260004  RH  085%=      5-min Rain = 0
KLE1 221357Z 35005KT 03/00 A3019 RMK A01 T00260003  RH  085%=      5-min Rain = 0
KLE1 221358Z 34004KT 03/00 A3019 RMK A01 T00260004  RH  085%=      5-min Rain = 0
KLE1 221359Z 34004KT 03/00 A3019 RMK A01 T00260004  RH  086%=      5-min Rain = 0
KLE1 221400Z 35004KT 03/00 A3019 RMK A01 T00270004  RH  085%=      5-min Rain = 0
KLE1 221401Z 34005KT 03/00 A3019 RMK A01 T00270004  RH  085%=      5-min Rain = 0
KLE1 221402Z 34006KT 03/00 A3019 RMK A01 T00270003  RH  085%=      5-min Rain = 0
KLE1 221403Z 35004KT 03/00 A3019 RMK A01 T00270002  RH  084%=      5-min Rain = 0
KLE1 221404Z 35004KT 03/00 A3019 RMK A01 T00270003  RH  084%=      5-min Rain = 0
KLE1 221405Z 35005KT 03/00 A3019 RMK A01 T00270004  RH  085%=      5-min Rain = 0
KLE1 221406Z 34005KT 03/00 A3019 RMK A01 T00270004  RH  085%=      5-min Rain = 0
KLE1 221407Z 34005KT 03/00 A3019 RMK A01 T00270003  RH  084%=      5-min Rain = 0
KLE1 221408Z 32006KT 03/00 A3019 RMK A01 T00270003  RH  084%=      5-min Rain = 0
KLE1 221409Z 34005KT 03/00 A3019 RMK A01 T00270003  RH  084%=      5-min Rain = 0
KLE1 221410Z 34005KT 03/00 A3019 RMK A01 T00280003  RH  084%=      5-min Rain = 0
KLE1 221411Z 34005KT 03/00 A3019 RMK A01 T00280004  RH  085%=      5-min Rain = 0
KLE1 221412Z 34005KT 03/00 A3019 RMK A01 T00280004  RH  084%=      5-min Rain = 0
KLE1 221413Z 34005KT 03/00 A3019 RMK A01 T00280004  RH  084%=      5-min Rain = 0
KLE1 221414Z 34005KT 03/01 A3019 RMK A01 T00280005  RH  085%=      5-min Rain = 0
KLE1 221415Z 34005KT 03/01 A3019 RMK A01 T00280005  RH  085%=      5-min Rain = 0
KLE1 221416Z 34005KT 03/00 A3019 RMK A01 T00280003  RH  084%=      5-min Rain = 0
KLE1 221417Z 34005KT 03/00 A3019 RMK A01 T00280003  RH  084%=      5-min Rain = 0
KLE1 221418Z 34004KT 03/00 A3019 RMK A01 T00280003  RH  083%=      5-min Rain = 0
KLE1 221419Z 35004KT 03/00 A3019 RMK A01 T00280003  RH  084%=      5-min Rain = 0
KLE1 221420Z 35004KT 03/00 A3019 RMK A01 T00280003  RH  084%=      5-min Rain = 0
KLE1 221421Z 35004KT 03/01 A3019 RMK A01 T00290005  RH  084%=      5-min Rain = 0
KLE1 221422Z 35004KT 03/00 A3019 RMK A01 T00290003  RH  083%=      5-min Rain = 0
KLE1 221423Z 35004KT 03/00 A3019 RMK A01 T00290004  RH  084%=      5-min Rain = 0
KLE1 221424Z 35004KT 03/00 A3019 RMK A01 T00290003  RH  083%=      5-min Rain = 0
KLE1 221425Z 34003KT 03/00 A3019 RMK A01 T00290002  RH  083%=      5-min Rain = 0
KLE1 221426Z 34003KT 03/00 A3019 RMK A01 T00290003  RH  083%=      5-min Rain = 0
KLE1 221427Z 00003KT 03/01 A3019 RMK A01 T00290005  RH  084%=      5-min Rain = 0
KLE1 221428Z 36004KT 03/01 A3019 RMK A01 T00290005  RH  084%=      5-min Rain = 0
KLE1 221429Z 36003KT 03/00 A3019 RMK A01 T00300004  RH  083%=      5-min Rain = 0
KLE1 221430Z 35002KT 03/00 A3019 RMK A01 T00300003  RH  083%=      5-min Rain = 0
KLE1 221431Z 35002KT 03/00 A3019 RMK A01 T00300004  RH  083%=      5-min Rain = 0
KLE1 221432Z 35002KT 03/01 A3019 RMK A01 T00300005  RH  083%=      5-min Rain = 0
KLE1 221433Z 35002KT 03/00 A3019 RMK A01 T00300003  RH  083%=      5-min Rain = 0
KLE1 221434Z 35002KT 03/01 A3019 RMK A01 T00300005  RH  083%=      5-min Rain = 0
KLE1 221435Z 34003KT 03/01 A3019 RMK A01 T00300005  RH  084%=      5-min Rain = 0
KLE1 221436Z 34002KT 03/01 A3019 RMK A01 T00310006  RH  084%=      5-min Rain = 0
KLE1 221437Z 33002KT 03/01 A3019 RMK A01 T00310005  RH  083%=      5-min Rain = 0
KLE1 221438Z 33002KT 03/01 A3019 RMK A01 T00320005  RH  083%=      5-min Rain = 0
KLE1 221439Z 34002KT 03/01 A3019 RMK A01 T00320006  RH  083%=      5-min Rain = 0
KLE1 221440Z 31003KT 03/01 A3019 RMK A01 T00330008  RH  084%=      5-min Rain = 0
KLE1 221441Z 31003KT 03/01 A3019 RMK A01 T00330006  RH  082%=      5-min Rain = 0
KLE1 221442Z 29003KT 03/01 A3019 RMK A01 T00330005  RH  082%=      5-min Rain = 0
KLE1 221443Z 31004KT 03/01 A3019 RMK A01 T00330005  RH  082%=      5-min Rain = 0
KLE1 221444Z 32003KT 03/00 A3019 RMK A01 T00330004  RH  082%=      5-min Rain = 0
KLE1 221445Z 31003KT 03/00 A3019 RMK A01 T00330004  RH  082%=      5-min Rain = 0
KLE1 221446Z 32004KT 03/01 A3019 RMK A01 T00320005  RH  082%=      5-min Rain = 0
KLE1 221447Z 32004KT 03/01 A3019 RMK A01 T00320006  RH  083%=      5-min Rain = 0
KLE1 221448Z 31004KT 03/00 A3019 RMK A01 T00320004  RH  082%=      5-min Rain = 0
KLE1 221449Z 31006KT 03/00 A3019 RMK A01 T00320004  RH  082%=      5-min Rain = 0
KLE1 221450Z 33005KT 03/00 A3019 RMK A01 T00320003  RH  081%=      5-min Rain = 0
KLE1 221451Z 34004KT 03/00 A3019 RMK A01 T00320002  RH  081%=      5-min Rain = 0
KLE1 221452Z 32005KT 03/00 A3019 RMK A01 T00320004  RH  082%=      5-min Rain = 0
KLE1 221453Z 31005KT 03/00 A3019 RMK A01 T00320004  RH  082%=      5-min Rain = 0
KLE1 221454Z 31004KT 03/00 A3019 RMK A01 T00320003  RH  081%=      5-min Rain = 0
KLE1 221455Z 32004KT 03/00 A3019 RMK A01 T00320002  RH  081%=      5-min Rain = 0
KLE1 221456Z 33004KT 03/01 A3019 RMK A01 T00320005  RH  082%=      5-min Rain = 0
KLE1 221457Z 34004KT 03/01 A3019 RMK A01 T00330007  RH  083%=      5-min Rain = 0
KLE1 221458Z 32004KT 03/01 A3019 RMK A01 T00340008  RH  083%=      5-min Rain = 0
KLE1 221459Z 32004KT 03/01 A3019 RMK A01 T00340007  RH  082%=      5-min Rain = 0
KLE1 221500Z 31003KT 03/01 A3019 RMK A01 T00340007  RH  083%=      5-min Rain = 0
KLE1 221501Z 31003KT 04/01 A3019 RMK A01 T00350007  RH  082%=      5-min Rain = 0
KLE1 221502Z 31003KT 04/01 A3019 RMK A01 T00350007  RH  082%=      5-min Rain = 0
KLE1 221503Z 32003KT 04/01 A3019 RMK A01 T00350008  RH  082%=      5-min Rain = 0
KLE1 221504Z 30003KT 04/01 A3019 RMK A01 T00350008  RH  082%=      5-min Rain = 0
KLE1 221505Z 30004KT 04/01 A3019 RMK A01 T00360010  RH  083%=      5-min Rain = 0
KLE1 221506Z 31005KT 04/01 A3019 RMK A01 T00360009  RH  082%=      5-min Rain = 0
KLE1 221507Z 32005KT 04/01 A3019 RMK A01 T00360008  RH  082%=      5-min Rain = 0
KLE1 221508Z 32004KT 04/01 A3019 RMK A01 T00360007  RH  081%=      5-min Rain = 0
KLE1 221509Z 31005KT 04/01 A3019 RMK A01 T00350006  RH  081%=      5-min Rain = 0
KLE1 221510Z 30005KT 04/01 A3019 RMK A01 T00350005  RH  081%=      5-min Rain = 0
KLE1 221511Z 29005KT 04/01 A302 RMK A01 T00350006  RH  081%=      5-min Rain = 0
KLE1 221512Z 31005KT 04/01 A302 RMK A01 T00350007  RH  082%=      5-min Rain = 0
KLE1 221513Z 31004KT 04/01 A302 RMK A01 T00350006  RH  082%=      5-min Rain = 0
KLE1 221514Z 31004KT 03/01 A302 RMK A01 T00340006  RH  081%=      5-min Rain = 0
KLE1 221515Z 32005KT 04/01 A302 RMK A01 T00350007  RH  082%=      5-min Rain = 0
KLE1 221516Z 31007KT 04/01 A302 RMK A01 T00350008  RH  083%=      5-min Rain = 0
KLE1 221517Z 30006KT 04/01 A302 RMK A01 T00350006  RH  081%=      5-min Rain = 0
KLE1 221518Z 30005KT 04/01 A302 RMK A01 T00350006  RH  081%=      5-min Rain = 0
KLE1 221519Z 30006KT 04/01 A302 RMK A01 T00360008  RH  082%=      5-min Rain = 0
KLE1 221520Z 30007KT 04/01 A302 RMK A01 T00360007  RH  082%=      5-min Rain = 0
KLE1 221521Z 30006KT 04/01 A302 RMK A01 T00360007  RH  081%=      5-min Rain = 0
KLE1 221522Z 29006KT 04/01 A302 RMK A01 T00360008  RH  082%=      5-min Rain = 0
KLE1 221523Z 29006KT 04/01 A302 RMK A01 T00380009  RH  082%=      5-min Rain = 0
KLE1 221524Z 29005KT 04/01 A302 RMK A01 T00380008  RH  081%=      5-min Rain = 0
KLE1 221525Z 32006KT 04/01 A302 RMK A01 T00390009  RH  081%=      5-min Rain = 0
KLE1 221526Z 32005KT 04/01 A302 RMK A01 T00400008  RH  080%=      5-min Rain = 0
KLE1 221527Z 29006KT 04/01 A3019 RMK A01 T00400008  RH  080%=      5-min Rain = 0
KLE1 221528Z 30006KT 04/01 A3019 RMK A01 T00400008  RH  080%=      5-min Rain = 0
KLE1 221529Z 31006KT 04/01 A3019 RMK A01 T00400009  RH  080%=      5-min Rain = 0
KLE1 221530Z 30006KT 04/01 A3019 RMK A01 T00410011  RH  081%=      5-min Rain = 0
KLE1 221531Z 30006KT 04/01 A3019 RMK A01 T00420010  RH  080%=      5-min Rain = 0
KLE1 221532Z 30008KT 04/01 A3019 RMK A01 T00430012  RH  081%=      5-min Rain = 0
KLE1 221533Z 30007KT 04/01 A3019 RMK A01 T00430010  RH  079%=      5-min Rain = 0
KLE1 221534Z 31007KT 04/01 A302 RMK A01 T00420010  RH  079%=      5-min Rain = 0
KLE1 221535Z 31006KT 04/01 A302 RMK A01 T00420010  RH  080%=      5-min Rain = 0
KLE1 221536Z 30006KT 04/01 A302 RMK A01 T00410007  RH  079%=      5-min Rain = 0
KLE1 221537Z 30006KT 04/01 A302 RMK A01 T00400006  RH  079%=      5-min Rain = 0
KLE1 221538Z 30006KT 04/01 A302 RMK A01 T00400008  RH  080%=      5-min Rain = 0
KLE1 221539Z 30006KT 04/01 A302 RMK A01 T00400007  RH  079%=      5-min Rain = 0
KLE1 221540Z 31006KT 04/01 A302 RMK A01 T00400010  RH  081%=      5-min Rain = 0
KLE1 221541Z 31007KT 04/01 A302 RMK A01 T00400009  RH  080%=      5-min Rain = 0
KLE1 221542Z 31007KT 04/01 A302 RMK A01 T00410008  RH  079%=      5-min Rain = 0
KLE1 221543Z 31006KT 04/01 A302 RMK A01 T00400007  RH  079%=      5-min Rain = 0
KLE1 221544Z 31007KT 04/01 A302 RMK A01 T00400007  RH  079%=      5-min Rain = 0
KLE1 221545Z 30005KT 04/01 A302 RMK A01 T00390006  RH  079%=      5-min Rain = 0
KLE1 221546Z 31006KT 04/01 A302 RMK A01 T00390007  RH  079%=      5-min Rain = 0
KLE1 221547Z 31005KT 04/01 A302 RMK A01 T00390006  RH  079%=      5-min Rain = 0
KLE1 221548Z 32006KT 04/01 A302 RMK A01 T00390007  RH  080%=      5-min Rain = 0
KLE1 221549Z 31005KT 04/01 A302 RMK A01 T00390006  RH  079%=      5-min Rain = 0
KLE1 221550Z 31005KT 04/01 A302 RMK A01 T00390008  RH  080%=      5-min Rain = 0
KLE1 221551Z 30005KT 04/01 A302 RMK A01 T00390007  RH  079%=      5-min Rain = 0
KLE1 221552Z 31005KT 04/01 A302 RMK A01 T00390007  RH  079%=      5-min Rain = 0
KLE1 221553Z 31005KT 04/01 A302 RMK A01 T00390007  RH  080%=      5-min Rain = 0
KLE1 221554Z 32004KT 04/01 A302 RMK A01 T00400009  RH  081%=      5-min Rain = 0
KLE1 221555Z 32004KT 04/01 A302 RMK A01 T00410011  RH  081%=      5-min Rain = 0
KLE1 221556Z 30004KT 04/01 A302 RMK A01 T00410010  RH  080%=      5-min Rain = 0
KLE1 221557Z 29005KT 04/01 A302 RMK A01 T00410008  RH  079%=      5-min Rain = 0
KLE1 221558Z 28005KT 04/01 A302 RMK A01 T00410008  RH  079%=      5-min Rain = 0
KLE1 221559Z 28005KT 04/01 A302 RMK A01 T00410008  RH  079%=      5-min Rain = 0
KLE1 221600Z 27004KT 04/01 A302 RMK A01 T00400007  RH  079%=      5-min Rain = 0
KLE1 221601Z 28004KT 04/01 A302 RMK A01 T00400009  RH  080%=      5-min Rain = 0
KLE1 221602Z 28005KT 04/01 A302 RMK A01 T00400009  RH  080%=      5-min Rain = 0
KLE1 221603Z 29005KT 04/01 A3021 RMK A01 T00410010  RH  081%=      5-min Rain = 0
KLE1 221604Z 30005KT 04/01 A3021 RMK A01 T00410008  RH  079%=      5-min Rain = 0
KLE1 221605Z 31004KT 04/01 A3021 RMK A01 T00400005  RH  078%=      5-min Rain = 0
KLE1 221606Z 32005KT 04/01 A3021 RMK A01 T00400008  RH  080%=      5-min Rain = 0
KLE1 221607Z 33004KT 04/01 A3021 RMK A01 T00400007  RH  079%=      5-min Rain = 0
KLE1 221608Z 33004KT 04/01 A3021 RMK A01 T00400006  RH  079%=      5-min Rain = 0
KLE1 221609Z 33004KT 04/01 A302 RMK A01 T00400007  RH  079%=      5-min Rain = 0
KLE1 221610Z 33003KT 04/01 A302 RMK A01 T00400007  RH  079%=      5-min Rain = 0
KLE1 221611Z 34002KT 04/01 A302 RMK A01 T00390007  RH  080%=      5-min Rain = 0
KLE1 221612Z 33002KT 04/01 A302 RMK A01 T00400011  RH  082%=      5-min Rain = 0
KLE1 221613Z 33004KT 04/01 A302 RMK A01 T00410011  RH  081%=      5-min Rain = 0
KLE1 221614Z 34004KT 04/01 A302 RMK A01 T00410008  RH  079%=      5-min Rain = 0
KLE1 221615Z 34003KT 04/01 A302 RMK A01 T00410007  RH  079%=      5-min Rain = 0
KLE1 221616Z 35004KT 04/01 A302 RMK A01 T00400006  RH  078%=      5-min Rain = 0
KLE1 221617Z 35005KT 04/01 A302 RMK A01 T00400008  RH  080%=      5-min Rain = 0
KLE1 221618Z 34006KT 04/01 A302 RMK A01 T00410010  RH  080%=      5-min Rain = 0
KLE1 221619Z 34005KT 04/01 A302 RMK A01 T00410009  RH  080%=      5-min Rain = 0
KLE1 221620Z 34005KT 04/01 A302 RMK A01 T00410008  RH  079%=      5-min Rain = 0
KLE1 221621Z 33004KT 04/01 A302 RMK A01 T00400008  RH  080%=      5-min Rain = 0
KLE1 221622Z 33004KT 04/01 A302 RMK A01 T00400009  RH  080%=      5-min Rain = 0
KLE1 221623Z 32005KT 04/01 A302 RMK A01 T00410009  RH  080%=      5-min Rain = 0
KLE1 221624Z 33006KT 04/01 A302 RMK A01 T00410010  RH  080%=      5-min Rain = 0
KLE1 221625Z 33004KT 04/01 A302 RMK A01 T00420011  RH  080%=      5-min Rain = 0
KLE1 221626Z 33005KT 04/01 A302 RMK A01 T00420010  RH  080%=      5-min Rain = 0
KLE1 221627Z 33005KT 04/01 A302 RMK A01 T00420009  RH  079%=      5-min Rain = 0
KLE1 221628Z 33004KT 04/01 A302 RMK A01 T00410008  RH  079%=      5-min Rain = 0
KLE1 221629Z 33004KT 04/01 A302 RMK A01 T00410008  RH  079%=      5-min Rain = 0
KLE1 221630Z 33004KT 04/01 A302 RMK A01 T00420008  RH  079%=      5-min Rain = 0
KLE1 221631Z 33006KT 04/01 A302 RMK A01 T00420009  RH  079%=      5-min Rain = 0
KLE1 221632Z 33006KT 04/01 A302 RMK A01 T00420006  RH  077%=      5-min Rain = 0
KLE1 221633Z 33006KT 04/01 A302 RMK A01 T00420007  RH  078%=      5-min Rain = 0
KLE1 221634Z 34006KT 04/01 A302 RMK A01 T00430009  RH  078%=      5-min Rain = 0
KLE1 221635Z 34006KT 04/01 A302 RMK A01 T00440008  RH  077%=      5-min Rain = 0
KLE1 221636Z 35005KT 04/01 A302 RMK A01 T00430006  RH  076%=      5-min Rain = 0
KLE1 221637Z 33005KT 04/01 A302 RMK A01 T00430006  RH  077%=      5-min Rain = 0
KLE1 221638Z 34006KT 04/01 A3019 RMK A01 T00430007  RH  077%=      5-min Rain = 0
KLE1 221639Z 34006KT 04/01 A3019 RMK A01 T00430005  RH  077%=      5-min Rain = 0
KLE1 221640Z 34006KT 04/01 A302 RMK A01 T00440009  RH  078%=      5-min Rain = 0
KLE1 221641Z 35006KT 05/01 A302 RMK A01 T00450005  RH  076%=      5-min Rain = 0
KLE1 221642Z 35006KT 05/01 A302 RMK A01 T00450005  RH  075%=      5-min Rain = 0
KLE1 221643Z 33007KT 05/01 A3019 RMK A01 T00450006  RH  076%=      5-min Rain = 0
KLE1 221644Z 33007KT 05/01 A302 RMK A01 T00460008  RH  076%=      5-min Rain = 0
KLE1 221645Z 33007KT 05/01 A302 RMK A01 T00460006  RH  075%=      5-min Rain = 0
KLE1 221646Z 34007KT 05/01 A302 RMK A01 T00460006  RH  075%=      5-min Rain = 0
KLE1 221647Z 34007KT 05/01 A302 RMK A01 T00460005  RH  075%=      5-min Rain = 0
KLE1 221648Z 34006KT 05/01 A302 RMK A01 T00460005  RH  075%=      5-min Rain = 0
KLE1 221649Z 34007KT 05/01 A302 RMK A01 T00450005  RH  075%=      5-min Rain = 0
KLE1 221650Z 34008KT 05/00 A302 RMK A01 T00450004  RH  075%=      5-min Rain = 0
KLE1 221651Z 33008KT 05/01 A302 RMK A01 T00450008  RH  076%=      5-min Rain = 0
KLE1 221652Z 34007KT 05/01 A302 RMK A01 T00460006  RH  075%=      5-min Rain = 0
KLE1 221653Z 34007KT 05/01 A3019 RMK A01 T00460006  RH  075%=      5-min Rain = 0
KLE1 221654Z 35007KT 05/01 A3019 RMK A01 T00460006  RH  075%=      5-min Rain = 0
KLE1 221655Z 35006KT 05/00 A3019 RMK A01 T00450004  RH  075%=      5-min Rain = 0
KLE1 221656Z 33006KT 05/00 A3019 RMK A01 T00450004  RH  075%=      5-min Rain = 0
KLE1 221657Z 35007KT 04/01 A3019 RMK A01 T00440005  RH  076%=      5-min Rain = 0
KLE1 221658Z 34009KT 05/01 A3019 RMK A01 T00450006  RH  076%=      5-min Rain = 0
KLE1 221659Z 33009KT 05/01 A3019 RMK A01 T00450007  RH  076%=      5-min Rain = 0
KLE1 221700Z 32009KT 05/01 A3019 RMK A01 T00460006  RH  075%=      5-min Rain = 0
KLE1 221701Z 32009KT 05/01 A3019 RMK A01 T00460005  RH  075%=      5-min Rain = 0
KLE1 221702Z 32009KT 05/00 A3019 RMK A01 T00450004  RH  075%=      5-min Rain = 0
KLE1 221703Z 34007KT 05/01 A3019 RMK A01 T00450006  RH  075%=      5-min Rain = 0
KLE1 221704Z 34008KT 05/01 A3019 RMK A01 T00460008  RH  076%=      5-min Rain = 0
KLE1 221705Z 34008KT 05/01 A3019 RMK A01 T00470005  RH  074%=      5-min Rain = 0
KLE1 221706Z 33006KT 05/01 A3019 RMK A01 T00470007  RH  075%=      5-min Rain = 0
KLE1 221707Z 34008KT 05/01 A3019 RMK A01 T00480009  RH  076%=      5-min Rain = 0
KLE1 221708Z 35007KT 05/01 A3019 RMK A01 T00490011  RH  076%=      5-min Rain = 0
KLE1 221709Z 35008KT 05/01 A3019 RMK A01 T00500009  RH  075%=      5-min Rain = 0
KLE1 221710Z 35005KT 05/01 A3019 RMK A01 T00490005  RH  073%=      5-min Rain = 0
KLE1 221711Z 35007KT 05/01 A3018 RMK A01 T00490009  RH  076%=      5-min Rain = 0
KLE1 221712Z 00007KT 05/01 A3018 RMK A01 T00500008  RH  074%=      5-min Rain = 0
KLE1 221713Z 35008KT 05/01 A3018 RMK A01 T00500008  RH  074%=      5-min Rain = 0
KLE1 221714Z 32007KT 05/01 A3018 RMK A01 T00500009  RH  075%=      5-min Rain = 0
KLE1 221715Z 34007KT 05/01 A3018 RMK A01 T00510011  RH  075%=      5-min Rain = 0
KLE1 221716Z 34007KT 05/01 A3018 RMK A01 T00530008  RH  073%=      5-min Rain = 0
KLE1 221717Z 33009KT 05/01 A3018 RMK A01 T00530012  RH  075%=      5-min Rain = 0
KLE1 221718Z 34009KT 05/01 A3018 RMK A01 T00530008  RH  073%=      5-min Rain = 0
KLE1 221719Z 35009KT 05/00 A3018 RMK A01 T00520004  RH  072%=      5-min Rain = 0
KLE1 221720Z 34009KT 05/00 A3018 RMK A01 T00500004  RH  072%=      5-min Rain = 0
KLE1 221721Z 33010KT 05/01 A3018 RMK A01 T00500005  RH  073%=      5-min Rain = 0
KLE1 221722Z 35009KT 05/01 A3018 RMK A01 T00500005  RH  073%=      5-min Rain = 0
KLE1 221723Z 34007KT 05/00 A3018 RMK A01 T00500004  RH  072%=      5-min Rain = 0
KLE1 221724Z 36006KT 05/00 A3018 RMK A01 T00500004  RH  072%=      5-min Rain = 0
KLE1 221725Z 35007KT 05/00 A3018 RMK A01 T00500003  RH  072%=      5-min Rain = 0
KLE1 221726Z 35007KT 05/00 A3018 RMK A01 T00490003  RH  072%=      5-min Rain = 0
KLE1 221727Z 34006KT 05/00 A3018 RMK A01 T00490001  RH  071%=      5-min Rain = 0
KLE1 221728Z 34006KT 05/00 A3018 RMK A01 T00480000  RH  071%=      5-min Rain = 0
KLE1 221729Z 35006KT 05/00 A3018 RMK A01 T00490004  RH  073%=      5-min Rain = 0
KLE1 221730Z 35006KT 05/00 A3018 RMK A01 T00500003  RH  072%=      5-min Rain = 0
KLE1 221731Z 35005KT 05/00 A3018 RMK A01 T00500003  RH  072%=      5-min Rain = 0
KLE1 221732Z 32007KT 05/01 A3018 RMK A01 T00510006  RH  073%=      5-min Rain = 0
KLE1 221733Z 32009KT 05/01 A3018 RMK A01 T00520007  RH  072%=      5-min Rain = 0
KLE1 221734Z 32010KT 05/01 A3018 RMK A01 T00540006  RH  071%=      5-min Rain = 0
KLE1 221735Z 31009KT 05/00 A3018 RMK A01 T00530003  RH  070%=      5-min Rain = 0
KLE1 221736Z 31008KT 05/00 A3018 RMK A01 T00530003  RH  070%=      5-min Rain = 0
KLE1 221737Z 30006KT 05/00 A3018 RMK A01 T00520000  RH  069%=      5-min Rain = 0
KLE1 221738Z 31004KT 05/00 A3018 RMK A01 T00510002  RH  071%=      5-min Rain = 0
KLE1 221739Z 30005KT 05/00 A3018 RMK A01 T00520003  RH  071%=      5-min Rain = 0
KLE1 221740Z 30005KT 05/00 A3018 RMK A01 T00530004  RH  071%=      5-min Rain = 0
KLE1 221741Z 29009KT 05/01 A3018 RMK A01 T00540006  RH  071%=      5-min Rain = 0
KLE1 221742Z 30007KT 05/00 A3018 RMK A01 T00540003  RH  069%=      5-min Rain = 0
KLE1 221743Z 31005KT 05/00 A3018 RMK A01 T00530002  RH  069%=      5-min Rain = 0
KLE1 221744Z 31005KT 05/00 A3018 RMK A01 T00530002  RH  070%=      5-min Rain = 0
KLE1 221745Z 32005KT 05/00 A3018 RMK A01 T00530003  RH  070%=      5-min Rain = 0
KLE1 221746Z 31004KT 05/00 A3018 RMK A01 T00540002  RH  069%=      5-min Rain = 0
KLE1 221747Z 32004KT 05/01 A3018 RMK A01 T00540005  RH  071%=      5-min Rain = 0
KLE1 221748Z 34007KT 06/01 A3018 RMK A01 T00560009  RH  072%=      5-min Rain = 0
KLE1 221749Z 33006KT 06/01 A3018 RMK A01 T00570007  RH  070%=      5-min Rain = 0
KLE1 221750Z 33006KT 06/00 A3018 RMK A01 T00570004  RH  069%=      5-min Rain = 0
KLE1 221751Z 33006KT 06/00 A3018 RMK A01 T00560003  RH  069%=      5-min Rain = 0
KLE1 221752Z 33005KT 06/00 A3018 RMK A01 T00550001  RH  068%=      5-min Rain = 0
KLE1 221753Z 29005KT 05/00 A3018 RMK A01 T00540004  RH  070%=      5-min Rain = 0
KLE1 221754Z 30005KT 06/01 A3018 RMK A01 T00550005  RH  070%=      5-min Rain = 0
KLE1 221755Z 28005KT 06/01 A3018 RMK A01 T00550005  RH  070%=      5-min Rain = 0
KLE1 221756Z 27005KT 06/01 A3018 RMK A01 T00560005  RH  070%=      5-min Rain = 0
KLE1 221757Z 27003KT 06/00 A3018 RMK A01 T00550004  RH  070%=      5-min Rain = 0
KLE1 221758Z 28005KT 06/01 A3018 RMK A01 T00550005  RH  070%=      5-min Rain = 0
KLE1 221759Z 29006KT 06/00 A3018 RMK A01 T00550004  RH  070%=      5-min Rain = 0
KLE1 221800Z 32006KT 06/01 A3018 RMK A01 T00550005  RH  070%=      5-min Rain = 0
KLE1 221801Z 33006KT 06/00 A3018 RMK A01 T00550003  RH  069%=      5-min Rain = 0
KLE1 221802Z 31005KT 06/00 A3018 RMK A01 T00550004  RH  070%=      5-min Rain = 0
KLE1 221803Z 30005KT 06/01 A3018 RMK A01 T00550005  RH  070%=      5-min Rain = 0
KLE1 221804Z 31005KT 06/00 A3017 RMK A01 T00550004  RH  069%=      5-min Rain = 0
KLE1 221805Z 32004KT 05/00 A3017 RMK A01 T00540002  RH  069%=      5-min Rain = 0
KLE1 221806Z 30004KT 05/00 A3017 RMK A01 T00540003  RH  070%=      5-min Rain = 0
KLE1 221807Z 30005KT 05/00 A3017 RMK A01 T00540004  RH  070%=      5-min Rain = 0
KLE1 221808Z 29004KT 05/00 A3017 RMK A01 T00540004  RH  070%=      5-min Rain = 0
KLE1 221809Z 31004KT 06/01 A3017 RMK A01 T00550005  RH  070%=      5-min Rain = 0
KLE1 221810Z 31004KT 06/01 A3017 RMK A01 T00550007  RH  071%=      5-min Rain = 0
KLE1 221811Z 32005KT 06/01 A3017 RMK A01 T00560006  RH  070%=      5-min Rain = 0
KLE1 221812Z 33005KT 06/01 A3017 RMK A01 T00570005  RH  070%=      5-min Rain = 0
KLE1 221813Z 32002KT 06/00 A3017 RMK A01 T00570004  RH  069%=      5-min Rain = 0
KLE1 221814Z 27002KT 06/01 A3017 RMK A01 T00570006  RH  070%=      5-min Rain = 0
KLE1 221815Z 25003KT 06/01 A3017 RMK A01 T00570007  RH  070%=      5-min Rain = 0
KLE1 221816Z 25004KT 06/00 A3017 RMK A01 T00580004  RH  068%=      5-min Rain = 0
KLE1 221817Z 26003KT 06/00 A3016 RMK A01 T00560002  RH  068%=      5-min Rain = 0
KLE1 221818Z 28005KT 06/00 A3016 RMK A01 T00550003  RH  069%=      5-min Rain = 0
KLE1 221819Z 28005KT 06/00 A3016 RMK A01 T00550003  RH  069%=      5-min Rain = 0
KLE1 221820Z 27005KT 06/00 A3016 RMK A01 T00550004  RH  070%=      5-min Rain = 0
KLE1 221821Z 27003KT 06/00 A3016 RMK A01 T00550003  RH  069%=      5-min Rain = 0
KLE1 221822Z 26004KT 06/00 A3016 RMK A01 T00550003  RH  069%=      5-min Rain = 0
KLE1 221823Z 26003KT 06/00 A3016 RMK A01 T00550004  RH  069%=      5-min Rain = 0
KLE1 221824Z 27004KT 06/00 A3016 RMK A01 T00560004  RH  070%=      5-min Rain = 0
KLE1 221825Z 28004KT 06/00 A3016 RMK A01 T00560001  RH  068%=      5-min Rain = 0
KLE1 221826Z 27006KT 06/00 A3016 RMK A01 T00560002  RH  068%=      5-min Rain = 0
KLE1 221827Z 29006KT 06/00 A3016 RMK A01 T00560004  RH  070%=      5-min Rain = 0
KLE1 221828Z 29006KT 06/00 A3016 RMK A01 T00560003  RH  069%=      5-min Rain = 0
KLE1 221829Z 30007KT 06/01 A3016 RMK A01 T00560005  RH  070%=      5-min Rain = 0
KLE1 221830Z 30008KT 06/01 A3016 RMK A01 T00570006  RH  070%=      5-min Rain = 0
KLE1 221831Z 29006KT 06/01 A3016 RMK A01 T00570005  RH  069%=      5-min Rain = 0
KLE1 221832Z 29005KT 06/00 A3016 RMK A01 T00580004  RH  069%=      5-min Rain = 0
KLE1 221833Z 28004KT 06/01 A3015 RMK A01 T00570006  RH  070%=      5-min Rain = 0
KLE1 221834Z 28004KT 06/01 A3015 RMK A01 T00580007  RH  069%=      5-min Rain = 0
KLE1 221835Z 30006KT 06/01 A3015 RMK A01 T00590007  RH  069%=      5-min Rain = 0
KLE1 221836Z 30007KT 06/01 A3015 RMK A01 T00590005  RH  068%=      5-min Rain = 0
KLE1 221837Z 31008KT 06/00 A3015 RMK A01 T00590004  RH  068%=      5-min Rain = 0
KLE1 221838Z 31006KT 06/00 A3015 RMK A01 T00580002  RH  067%=      5-min Rain = 0
KLE1 221839Z 32004KT 06/00 A3015 RMK A01 T00570003  RH  068%=      5-min Rain = 0
KLE1 221840Z 31003KT 06/01 A3015 RMK A01 T00580007  RH  070%=      5-min Rain = 0
KLE1 221841Z 32005KT 06/01 A3015 RMK A01 T00600009  RH  070%=      5-min Rain = 0
KLE1 221842Z 33006KT 06/01 A3014 RMK A01 T00620009  RH  069%=      5-min Rain = 0
KLE1 221843Z 33006KT 06/00 A3014 RMK A01 T00620003  RH  066%=      5-min Rain = 0
KLE1 221844Z 33006KT 06/00 A3014 RMK A01 T00600002  RH  066%=      5-min Rain = 0
KLE1 221845Z 33008KT 06/00 A3014 RMK A01 T00600002  RH  066%=      5-min Rain = 0
KLE1 221846Z 32009KT 06/00 A3014 RMK A01 T00600004  RH  067%=      5-min Rain = 0
KLE1 221847Z 32006KT 06/00 A3014 RMK A01 T00610004  RH  067%=      5-min Rain = 0
KLE1 221848Z 31006KT 06/00 A3014 RMK A01 T00620004  RH  067%=      5-min Rain = 0
KLE1 221849Z 30005KT 06/00 A3014 RMK A01 T00620004  RH  066%=      5-min Rain = 0
KLE1 221850Z 33005KT 06/00 A3014 RMK A01 T00620004  RH  066%=      5-min Rain = 0
KLE1 221851Z 34005KT 06/00 A3014 RMK A01 T00620001  RH  065%=      5-min Rain = 0
KLE1 221852Z 32007KT 06/00 A3014 RMK A01 T00610001  RH  065%=      5-min Rain = 0
KLE1 221853Z 32009KT 06/00 A3014 RMK A01 T00610003  RH  066%=      5-min Rain = 0
KLE1 221854Z 33007KT 06/00 A3014 RMK A01 T00610004  RH  067%=      5-min Rain = 0
KLE1 221855Z 33005KT 06/00 A3014 RMK A01 T00610003  RH  067%=      5-min Rain = 0
KLE1 221856Z 34005KT 06/00 A3014 RMK A01 T00610004  RH  067%=      5-min Rain = 0
KLE1 221857Z 32005KT 06/00 A3014 RMK A01 T00610001  RH  066%=      5-min Rain = 0
KLE1 221858Z 31005KT 06/00 A3014 RMK A01 T00600002  RH  066%=      5-min Rain = 0
KLE1 221859Z 30003KT 06/00 A3014 RMK A01 T00600001  RH  066%=      5-min Rain = 0
KLE1 221900Z 31004KT 06/00 A3014 RMK A01 T00610002  RH  066%=      5-min Rain = 0
KLE1 221901Z 33006KT 06/00 A3013 RMK A01 T00620004  RH  067%=      5-min Rain = 0
KLE1 221902Z 32007KT 06/00 A3014 RMK A01 T00630004  RH  066%=      5-min Rain = 0
KLE1 221903Z 31006KT 06/00 A3014 RMK A01 T00630004  RH  066%=      5-min Rain = 0
KLE1 221904Z 29007KT 06/00 A3013 RMK A01 T00630004  RH  065%=      5-min Rain = 0
KLE1 221905Z 29007KT 06/00 A3013 RMK A01 T00630003  RH  065%=      5-min Rain = 0
KLE1 221906Z 29005KT 06/00 A3013 RMK A01 T00620001  RH  065%=      5-min Rain = 0
KLE1 221907Z 30004KT 06/00 A3013 RMK A01 T00610003  RH  066%=      5-min Rain = 0
KLE1 221908Z 33005KT 06/01 A3013 RMK A01 T00620005  RH  067%=      5-min Rain = 0
KLE1 221909Z 33002KT 06/00 A3013 RMK A01 T00630002  RH  065%=      5-min Rain = 0
KLE1 221910Z 33003KT 06/00 A3013 RMK A01 T00620003  RH  066%=      5-min Rain = 0
KLE1 221911Z 34004KT 06/01 A3013 RMK A01 T00630006  RH  067%=      5-min Rain = 0
KLE1 221912Z 01004KT 06/01 A3013 RMK A01 T00640007  RH  067%=      5-min Rain = 0
KLE1 221913Z 35004KT 06/00 A3013 RMK A01 T00640003  RH  065%=      5-min Rain = 0
KLE1 221914Z 35004KT 06/00 A3013 RMK A01 T00620002  RH  065%=      5-min Rain = 0
KLE1 221915Z 34007KT 06/00 A3013 RMK A01 T00620003  RH  066%=      5-min Rain = 0
KLE1 221916Z 34006KT 06/01 A3013 RMK A01 T00620005  RH  067%=      5-min Rain = 0
KLE1 221917Z 34006KT 06/00 A3013 RMK A01 T00630003  RH  066%=      5-min Rain = 0
KLE1 221918Z 33004KT 06/00 A3013 RMK A01 T00620001  RH  065%=      5-min Rain = 0
KLE1 221919Z 35004KT 06/00 A3012 RMK A01 T00620002  RH  065%=      5-min Rain = 0
KLE1 221920Z 01006KT 06/00 A3012 RMK A01 T00620004  RH  066%=      5-min Rain = 0
KLE1 221921Z 00008KT 06/00 A3012 RMK A01 T00620004  RH  066%=      5-min Rain = 0
KLE1 221922Z 35005KT 06/00 A3012 RMK A01 T00610001  RH  065%=      5-min Rain = 0
KLE1 221923Z 36007KT 06/00 A3012 RMK A01 T00600000  RH  065%=      5-min Rain = 0
KLE1 221924Z 00007KT 06/00 A3012 RMK A01 T00600003  RH  067%=      5-min Rain = 0
KLE1 221925Z 00006KT 06/00 A3012 RMK A01 T00600003  RH  067%=      5-min Rain = 0
KLE1 221926Z 35004KT 06/00 A3012 RMK A01 T00610002  RH  066%=      5-min Rain = 0
KLE1 221927Z 00001KT 06/00 A3012 RMK A01 T00610001  RH  065%=      5-min Rain = 0
KLE1 221928Z 01003KT 06/M00 A3012 RMK A01 T00611001  RH  065%=      5-min Rain = 0
KLE1 221929Z 00005KT 06/00 A3012 RMK A01 T00610001  RH  065%=      5-min Rain = 0
KLE1 221930Z 00004KT 06/00 A3012 RMK A01 T00610000  RH  065%=      5-min Rain = 0
KLE1 221931Z 02004KT 06/00 A3012 RMK A01 T00610002  RH  066%=      5-min Rain = 0
KLE1 221932Z 02003KT 06/00 A3012 RMK A01 T00620002  RH  065%=      5-min Rain = 0
KLE1 221933Z 02004KT 06/00 A3012 RMK A01 T00620003  RH  066%=      5-min Rain = 0
KLE1 221934Z 01003KT 06/00 A3012 RMK A01 T00630003  RH  065%=      5-min Rain = 0
KLE1 221935Z 36002KT 06/00 A3012 RMK A01 T00630001  RH  064%=      5-min Rain = 0
KLE1 221936Z 35005KT 06/00 A3012 RMK A01 T00640004  RH  066%=      5-min Rain = 0
KLE1 221937Z 35004KT 07/01 A3012 RMK A01 T00650005  RH  066%=      5-min Rain = 0
KLE1 221938Z 35004KT 07/01 A3012 RMK A01 T00650006  RH  066%=      5-min Rain = 0
KLE1 221939Z 35004KT 07/01 A3012 RMK A01 T00660005  RH  065%=      5-min Rain = 0
KLE1 221940Z 35005KT 07/01 A3011 RMK A01 T00670006  RH  065%=      5-min Rain = 0
KLE1 221941Z 35004KT 07/00 A3011 RMK A01 T00670003  RH  064%=      5-min Rain = 0
KLE1 221942Z 00004KT 07/00 A3011 RMK A01 T00660003  RH  064%=      5-min Rain = 0
KLE1 221943Z 00003KT 07/00 A3011 RMK A01 T00650001  RH  064%=      5-min Rain = 0
KLE1 221944Z 01003KT 07/00 A3011 RMK A01 T00650002  RH  064%=      5-min Rain = 0
KLE1 221945Z 02002KT 07/M00 A3011 RMK A01 T00651001  RH  063%=      5-min Rain = 0
KLE1 221946Z 00002KT 06/M00 A3011 RMK A01 T00641001  RH  063%=      5-min Rain = 0
KLE1 221947Z 32004KT 06/00 A3011 RMK A01 T00630002  RH  065%=      5-min Rain = 0
KLE1 221948Z 31004KT 06/00 A3011 RMK A01 T00630001  RH  064%=      5-min Rain = 0
KLE1 221949Z 32003KT 06/00 A3011 RMK A01 T00630001  RH  064%=      5-min Rain = 0
KLE1 221950Z 29004KT 06/00 A3011 RMK A01 T00630002  RH  065%=      5-min Rain = 0
KLE1 221951Z 27003KT 06/00 A3011 RMK A01 T00640003  RH  065%=      5-min Rain = 0
KLE1 221952Z 26003KT 06/00 A3011 RMK A01 T00640000  RH  064%=      5-min Rain = 0
KLE1 221953Z 26004KT 06/00 A3011 RMK A01 T00640001  RH  064%=      5-min Rain = 0
KLE1 221954Z 25001KT 06/M00 A3011 RMK A01 T00631001  RH  064%=      5-min Rain = 0
KLE1 221955Z 23002KT 06/00 A3011 RMK A01 T006200-0  RH  064%=      5-min Rain = 0
KLE1 221956Z 31003KT 06/00 A3011 RMK A01 T00620002  RH  065%=      5-min Rain = 0
KLE1 221957Z 30003KT 06/00 A3011 RMK A01 T00620001  RH  065%=      5-min Rain = 0
KLE1 221958Z 32003KT 06/00 A3011 RMK A01 T00630001  RH  065%=      5-min Rain = 0
KLE1 221959Z 30002KT 06/00 A3011 RMK A01 T00620000  RH  065%=      5-min Rain = 0
KLE1 222000Z 30002KT 06/00 A3011 RMK A01 T00620000  RH  065%=      5-min Rain = 0
KLE1 222001Z 31004KT 06/00 A3011 RMK A01 T00620002  RH  066%=      5-min Rain = 0
KLE1 222002Z 30004KT 06/00 A3011 RMK A01 T00620002  RH  065%=      5-min Rain = 0
KLE1 222003Z 30003KT 06/00 A3011 RMK A01 T00620002  RH  065%=      5-min Rain = 0
KLE1 222004Z 33002KT 06/01 A3011 RMK A01 T00630005  RH  066%=      5-min Rain = 0
KLE1 222005Z 32002KT 06/00 A3011 RMK A01 T00640003  RH  065%=      5-min Rain = 0
KLE1 222006Z 32003KT 07/01 A3011 RMK A01 T00650005  RH  065%=      5-min Rain = 0
KLE1 222007Z 31003KT 07/00 A3011 RMK A01 T00650004  RH  065%=      5-min Rain = 0
KLE1 222008Z 31003KT 07/00 A3011 RMK A01 T00650003  RH  064%=      5-min Rain = 0
KLE1 222009Z 29002KT 07/00 A3011 RMK A01 T00650002  RH  064%=      5-min Rain = 0
KLE1 222010Z 26001KT 06/00 A3011 RMK A01 T00640001  RH  064%=      5-min Rain = 0
KLE1 222011Z 25001KT 07/00 A301 RMK A01 T00650003  RH  065%=      5-min Rain = 0
KLE1 222012Z 22001KT 07/00 A301 RMK A01 T00650002  RH  064%=      5-min Rain = 0
KLE1 222013Z 15001KT 07/01 A301 RMK A01 T00650005  RH  065%=      5-min Rain = 0
KLE1 222014Z 09001KT 07/00 A301 RMK A01 T00660003  RH  064%=      5-min Rain = 0
KLE1 222015Z 34002KT 07/00 A301 RMK A01 T00670004  RH  064%=      5-min Rain = 0
KLE1 222016Z 33003KT 07/00 A301 RMK A01 T00670004  RH  064%=      5-min Rain = 0
KLE1 222017Z 33002KT 07/00 A301 RMK A01 T00670003  RH  064%=      5-min Rain = 0
KLE1 222018Z 32002KT 07/00 A301 RMK A01 T00680003  RH  063%=      5-min Rain = 0
KLE1 222019Z 30002KT 07/00 A301 RMK A01 T00670004  RH  064%=      5-min Rain = 0
KLE1 222020Z 30002KT 07/00 A301 RMK A01 T00680004  RH  064%=      5-min Rain = 0
KLE1 222021Z 27001KT 07/00 A301 RMK A01 T00680002  RH  063%=      5-min Rain = 0
KLE1 222022Z 27001KT 07/00 A301 RMK A01 T00680003  RH  064%=      5-min Rain = 0
KLE1 222023Z 32001KT 07/00 A301 RMK A01 T00680003  RH  063%=      5-min Rain = 0
KLE1 222024Z 34001KT 07/00 A301 RMK A01 T00680002  RH  063%=      5-min Rain = 0
KLE1 222025Z 01002KT 07/00 A301 RMK A01 T00680003  RH  063%=      5-min Rain = 0
KLE1 222026Z 02002KT 07/00 A301 RMK A01 T00670001  RH  063%=      5-min Rain = 0
KLE1 222027Z 01002KT 07/00 A301 RMK A01 T00660001  RH  063%=      5-min Rain = 0
KLE1 222028Z 01001KT 07/00 A301 RMK A01 T00660003  RH  064%=      5-min Rain = 0
KLE1 222029Z 34001KT 07/00 A301 RMK A01 T00660004  RH  065%=      5-min Rain = 0
KLE1 222030Z 36002KT 07/00 A301 RMK A01 T00660004  RH  065%=      5-min Rain = 0
KLE1 222031Z 01004KT 07/00 A301 RMK A01 T00660004  RH  064%=      5-min Rain = 0
KLE1 222032Z 02003KT 07/00 A301 RMK A01 T00670003  RH  064%=      5-min Rain = 0
KLE1 222033Z 32003KT 07/00 A301 RMK A01 T00660004  RH  064%=      5-min Rain = 0
KLE1 222034Z 32002KT 07/00 A301 RMK A01 T00660002  RH  064%=      5-min Rain = 0
KLE1 222035Z 32001KT 07/01 A301 RMK A01 T00660005  RH  065%=      5-min Rain = 0
KLE1 222036Z 31002KT 07/01 A301 RMK A01 T00660005  RH  065%=      5-min Rain = 0
KLE1 222037Z 36002KT 07/01 A301 RMK A01 T00670005  RH  065%=      5-min Rain = 0
KLE1 222038Z 04003KT 07/00 A301 RMK A01 T00670004  RH  064%=      5-min Rain = 0
KLE1 222039Z 03004KT 07/01 A301 RMK A01 T00670006  RH  065%=      5-min Rain = 0
KLE1 222040Z 04003KT 07/01 A301 RMK A01 T00680009  RH  066%=      5-min Rain = 0
KLE1 222041Z 04004KT 07/01 A301 RMK A01 T00690007  RH  065%=      5-min Rain = 0
KLE1 222042Z 02003KT 07/00 A301 RMK A01 T00690004  RH  063%=      5-min Rain = 0
KLE1 222043Z 02003KT 07/00 A3009 RMK A01 T00680003  RH  063%=      5-min Rain = 0
KLE1 222044Z 05003KT 07/00 A3009 RMK A01 T00670003  RH  064%=      5-min Rain = 0
KLE1 222045Z 05003KT 07/00 A3009 RMK A01 T00670004  RH  064%=      5-min Rain = 0
KLE1 222046Z 03003KT 07/00 A3009 RMK A01 T00660002  RH  063%=      5-min Rain = 0
KLE1 222047Z 03002KT 07/00 A3009 RMK A01 T00660002  RH  063%=      5-min Rain = 0
KLE1 222048Z 06002KT 07/00 A3009 RMK A01 T00660002  RH  064%=      5-min Rain = 0
KLE1 222049Z 08002KT 07/00 A3009 RMK A01 T00660002  RH  064%=      5-min Rain = 0
KLE1 222050Z 08002KT 07/00 A3009 RMK A01 T00660003  RH  064%=      5-min Rain = 0
KLE1 222051Z 07002KT 07/00 A3009 RMK A01 T00660004  RH  065%=      5-min Rain = 0
KLE1 222052Z 07001KT 07/00 A3009 RMK A01 T00660003  RH  064%=      5-min Rain = 0
KLE1 222053Z 00000KT 07/00 A3009 RMK A01 T00660001  RH  063%=      5-min Rain = 0
KLE1 222054Z 00000KT 07/00 A3009 RMK A01 T00660001  RH  063%=      5-min Rain = 0
KLE1 222055Z 00001KT 07/00 A3009 RMK A01 T00650001  RH  063%=      5-min Rain = 0
KLE1 222056Z 35002KT 07/00 A3009 RMK A01 T00650003  RH  065%=      5-min Rain = 0
KLE1 222057Z 33002KT 07/01 A3009 RMK A01 T00670005  RH  065%=      5-min Rain = 0
KLE1 222058Z 01005KT 07/01 A3009 RMK A01 T00670006  RH  065%=      5-min Rain = 0
KLE1 222059Z 04004KT 07/01 A3009 RMK A01 T00680005  RH  064%=      5-min Rain = 0
KLE1 222100Z 02004KT 07/01 A3009 RMK A01 T00670005  RH  064%=      5-min Rain = 0
KLE1 222101Z 01003KT 07/01 A3009 RMK A01 T00670005  RH  065%=      5-min Rain = 0
KLE1 222102Z 35003KT 07/01 A3009 RMK A01 T00680007  RH  065%=      5-min Rain = 0
KLE1 222103Z 35003KT 07/01 A3009 RMK A01 T00680005  RH  064%=      5-min Rain = 0
KLE1 222104Z 00002KT 07/00 A3009 RMK A01 T00670002  RH  063%=      5-min Rain = 0
KLE1 222105Z 05003KT 07/00 A3009 RMK A01 T00660003  RH  064%=      5-min Rain = 0
KLE1 222106Z 04004KT 07/01 A3009 RMK A01 T00670006  RH  065%=      5-min Rain = 0
KLE1 222107Z 03001KT 07/00 A3009 RMK A01 T00670004  RH  064%=      5-min Rain = 0
KLE1 222108Z 08000KT 07/00 A3009 RMK A01 T00660003  RH  064%=      5-min Rain = 0
KLE1 222109Z 07004KT 07/01 A3009 RMK A01 T00670005  RH  065%=      5-min Rain = 0
KLE1 222110Z 08003KT 07/00 A3009 RMK A01 T00660003  RH  064%=      5-min Rain = 0
KLE1 222111Z 12001KT 07/00 A3009 RMK A01 T00660002  RH  064%=      5-min Rain = 0
KLE1 222112Z 07001KT 07/01 A3009 RMK A01 T00650006  RH  066%=      5-min Rain = 0
KLE1 222113Z 06001KT 07/01 A3009 RMK A01 T00660005  RH  065%=      5-min Rain = 0
KLE1 222114Z 07001KT 07/00 A3009 RMK A01 T00660004  RH  064%=      5-min Rain = 0
KLE1 222115Z 09002KT 07/00 A3009 RMK A01 T00660003  RH  064%=      5-min Rain = 0
KLE1 222116Z 08003KT 07/01 A3009 RMK A01 T00670006  RH  065%=      5-min Rain = 0
KLE1 222117Z 08002KT 07/01 A3009 RMK A01 T00670007  RH  065%=      5-min Rain = 0
KLE1 222118Z 08002KT 07/01 A3009 RMK A01 T00670006  RH  065%=      5-min Rain = 0
KLE1 222119Z 10003KT 07/01 A3009 RMK A01 T00670006  RH  065%=      5-min Rain = 0
KLE1 222120Z 09003KT 07/01 A3009 RMK A01 T00680006  RH  065%=      5-min Rain = 0
KLE1 222121Z 07004KT 07/01 A3009 RMK A01 T00680007  RH  065%=      5-min Rain = 0
KLE1 222122Z 06004KT 07/01 A3009 RMK A01 T00670007  RH  065%=      5-min Rain = 0
KLE1 222123Z 08003KT 07/01 A3009 RMK A01 T00670005  RH  064%=      5-min Rain = 0
KLE1 222124Z 08002KT 07/00 A3009 RMK A01 T00660004  RH  064%=      5-min Rain = 0
KLE1 222125Z 06002KT 07/01 A3009 RMK A01 T00660005  RH  065%=      5-min Rain = 0
KLE1 222126Z 03002KT 07/01 A3009 RMK A01 T00660008  RH  066%=      5-min Rain = 0
KLE1 222127Z 01003KT 07/01 A3009 RMK A01 T00660006  RH  065%=      5-min Rain = 0
KLE1 222128Z 00003KT 07/00 A3009 RMK A01 T00660004  RH  064%=      5-min Rain = 0
KLE1 222129Z 36003KT 07/00 A3009 RMK A01 T00660003  RH  064%=      5-min Rain = 0
KLE1 222130Z 33002KT 07/00 A3009 RMK A01 T00660003  RH  064%=      5-min Rain = 0
KLE1 222131Z 33001KT 07/00 A3009 RMK A01 T00650002  RH  064%=      5-min Rain = 0
KLE1 222132Z 34000KT 07/00 A3009 RMK A01 T00650004  RH  065%=      5-min Rain = 0
KLE1 222133Z 07001KT 07/01 A3009 RMK A01 T00650005  RH  066%=      5-min Rain = 0
KLE1 222134Z 09001KT 07/00 A3009 RMK A01 T00650004  RH  065%=      5-min Rain = 0
KLE1 222135Z 08001KT 07/01 A3009 RMK A01 T00650005  RH  065%=      5-min Rain = 0
KLE1 222136Z 05002KT 07/01 A3009 RMK A01 T00650005  RH  065%=      5-min Rain = 0
KLE1 222137Z 05004KT 07/01 A3009 RMK A01 T00660006  RH  065%=      5-min Rain = 0
KLE1 222138Z 05003KT 07/00 A3009 RMK A01 T00660004  RH  065%=      5-min Rain = 0
KLE1 222139Z 07002KT 07/01 A3009 RMK A01 T00660005  RH  065%=      5-min Rain = 0
KLE1 222140Z 08001KT 07/01 A3009 RMK A01 T00660005  RH  065%=      5-min Rain = 0
KLE1 222141Z 11001KT 07/00 A3009 RMK A01 T00660004  RH  065%=      5-min Rain = 0
KLE1 222142Z 13001KT 07/01 A3009 RMK A01 T00660005  RH  065%=      5-min Rain = 0
KLE1 222143Z 12001KT 07/01 A3009 RMK A01 T00660005  RH  065%=      5-min Rain = 0
KLE1 222144Z 11001KT 07/01 A3009 RMK A01 T00660005  RH  065%=      5-min Rain = 0
KLE1 222145Z 09002KT 07/01 A3009 RMK A01 T00660005  RH  065%=      5-min Rain = 0
KLE1 222146Z 05002KT 07/00 A3009 RMK A01 T00660004  RH  065%=      5-min Rain = 0
KLE1 222147Z 04001KT 07/00 A3009 RMK A01 T00660003  RH  065%=      5-min Rain = 0
KLE1 222148Z 03001KT 07/00 A3008 RMK A01 T00650003  RH  064%=      5-min Rain = 0
KLE1 222149Z 04001KT 07/00 A3008 RMK A01 T00650004  RH  065%=      5-min Rain = 0
KLE1 222150Z 07002KT 07/01 A3008 RMK A01 T00650005  RH  066%=      5-min Rain = 0
KLE1 222151Z 06002KT 07/01 A3008 RMK A01 T00650005  RH  065%=      5-min Rain = 0
KLE1 222152Z 05003KT 07/01 A3008 RMK A01 T00650005  RH  066%=      5-min Rain = 0
KLE1 222153Z 04002KT 07/01 A3008 RMK A01 T00660006  RH  066%=      5-min Rain = 0
KLE1 222154Z 05003KT 07/01 A3008 RMK A01 T00660006  RH  066%=      5-min Rain = 0
KLE1 222155Z 05003KT 07/00 A3008 RMK A01 T00660004  RH  064%=      5-min Rain = 0
KLE1 222156Z 04003KT 07/01 A3008 RMK A01 T00660005  RH  065%=      5-min Rain = 0
KLE1 222157Z 03003KT 07/00 A3008 RMK A01 T00660004  RH  065%=      5-min Rain = 0
KLE1 222158Z 03001KT 07/00 A3008 RMK A01 T00660003  RH  064%=      5-min Rain = 0
KLE1 222159Z 03001KT 07/00 A3008 RMK A01 T00660004  RH  065%=      5-min Rain = 0
KLE1 222200Z 06003KT 07/00 A3008 RMK A01 T00650002  RH  064%=      5-min Rain = 0
KLE1 222201Z 06003KT 07/00 A3008 RMK A01 T00650004  RH  065%=      5-min Rain = 0
KLE1 222202Z 06002KT 07/01 A3008 RMK A01 T00650005  RH  065%=      5-min Rain = 0
KLE1 222203Z 05002KT 07/00 A3008 RMK A01 T00650003  RH  064%=      5-min Rain = 0
KLE1 222204Z 07001KT 07/00 A3008 RMK A01 T00650003  RH  064%=      5-min Rain = 0
KLE1 222205Z 09002KT 07/00 A3008 RMK A01 T00650003  RH  065%=      5-min Rain = 0
KLE1 222206Z 07002KT 07/00 A3008 RMK A01 T00650004  RH  065%=      5-min Rain = 0
KLE1 222207Z 07001KT 07/01 A3008 RMK A01 T00650005  RH  065%=      5-min Rain = 0
KLE1 222208Z 06003KT 07/01 A3008 RMK A01 T00650006  RH  066%=      5-min Rain = 0
KLE1 222209Z 05004KT 07/01 A3008 RMK A01 T00650006  RH  066%=      5-min Rain = 0
KLE1 222210Z 06004KT 07/01 A3008 RMK A01 T00650005  RH  065%=      5-min Rain = 0
KLE1 222211Z 05004KT 07/01 A3008 RMK A01 T00650007  RH  066%=      5-min Rain = 0
KLE1 222212Z 04004KT 07/01 A3008 RMK A01 T00650007  RH  066%=      5-min Rain = 0
KLE1 222213Z 04004KT 07/01 A3008 RMK A01 T00650005  RH  065%=      5-min Rain = 0
KLE1 222214Z 03003KT 07/00 A3008 RMK A01 T00650004  RH  065%=      5-min Rain = 0
KLE1 222215Z 04003KT 06/00 A3008 RMK A01 T00640004  RH  066%=      5-min Rain = 0
KLE1 222216Z 04003KT 06/01 A3008 RMK A01 T00640006  RH  066%=      5-min Rain = 0
KLE1 222217Z 03003KT 07/01 A3008 RMK A01 T00650008  RH  067%=      5-min Rain = 0
KLE1 222218Z 02004KT 07/01 A3008 RMK A01 T00650008  RH  067%=      5-min Rain = 0
KLE1 222219Z 02003KT 07/01 A3008 RMK A01 T00650005  RH  066%=      5-min Rain = 0
KLE1 222220Z 03003KT 07/01 A3008 RMK A01 T00650006  RH  066%=      5-min Rain = 0
KLE1 222221Z 05002KT 07/01 A3008 RMK A01 T00650006  RH  066%=      5-min Rain = 0
KLE1 222222Z 04003KT 07/01 A3008 RMK A01 T00650008  RH  067%=      5-min Rain = 0
KLE1 222223Z 05004KT 07/01 A3008 RMK A01 T00650007  RH  066%=      5-min Rain = 0
KLE1 222224Z 05004KT 07/01 A3008 RMK A01 T00650007  RH  066%=      5-min Rain = 0
KLE1 222225Z 05003KT 07/01 A3008 RMK A01 T00650007  RH  067%=      5-min Rain = 0
KLE1 222226Z 05004KT 07/01 A3008 RMK A01 T00650007  RH  066%=      5-min Rain = 0
KLE1 222227Z 04004KT 07/01 A3008 RMK A01 T00650008  RH  067%=      5-min Rain = 0
KLE1 222228Z 04004KT 07/01 A3008 RMK A01 T00650009  RH  067%=      5-min Rain = 0
KLE1 222229Z 04004KT 07/01 A3008 RMK A01 T00650006  RH  066%=      5-min Rain = 0
KLE1 222230Z 05003KT 07/01 A3008 RMK A01 T00650006  RH  066%=      5-min Rain = 0
KLE1 222231Z 06003KT 06/01 A3008 RMK A01 T00640007  RH  067%=      5-min Rain = 0
KLE1 222232Z 06004KT 06/01 A3008 RMK A01 T00640010  RH  068%=      5-min Rain = 0
KLE1 222233Z 07004KT 06/01 A3008 RMK A01 T00640010  RH  068%=      5-min Rain = 0
KLE1 222234Z 07004KT 07/01 A3008 RMK A01 T00650010  RH  068%=      5-min Rain = 0
KLE1 222235Z 07005KT 07/01 A3008 RMK A01 T00650009  RH  068%=      5-min Rain = 0
KLE1 222236Z 07004KT 06/01 A3008 RMK A01 T00640006  RH  066%=      5-min Rain = 0
KLE1 222237Z 05004KT 06/01 A3008 RMK A01 T00640008  RH  067%=      5-min Rain = 0
KLE1 222238Z 05006KT 06/01 A3008 RMK A01 T00640008  RH  067%=      5-min Rain = 0
KLE1 222239Z 05005KT 06/01 A3008 RMK A01 T00640008  RH  067%=      5-min Rain = 0
KLE1 222240Z 06005KT 06/01 A3008 RMK A01 T00640009  RH  068%=      5-min Rain = 0
KLE1 222241Z 06006KT 06/01 A3008 RMK A01 T00640008  RH  068%=      5-min Rain = 0
KLE1 222242Z 05005KT 06/01 A3008 RMK A01 T00630007  RH  067%=      5-min Rain = 0
KLE1 222243Z 04005KT 06/01 A3008 RMK A01 T00630007  RH  067%=      5-min Rain = 0
KLE1 222244Z 04004KT 06/01 A3008 RMK A01 T00630005  RH  067%=      5-min Rain = 0
KLE1 222245Z 03004KT 06/01 A3008 RMK A01 T00620005  RH  067%=      5-min Rain = 0
KLE1 222246Z 03004KT 06/01 A3008 RMK A01 T00630006  RH  067%=      5-min Rain = 0
KLE1 222247Z 04003KT 06/01 A3008 RMK A01 T00620007  RH  068%=      5-min Rain = 0
KLE1 222248Z 04004KT 06/01 A3008 RMK A01 T00620008  RH  068%=      5-min Rain = 0
KLE1 222249Z 05004KT 06/01 A3008 RMK A01 T00620006  RH  067%=      5-min Rain = 0
KLE1 222250Z 05005KT 06/01 A3008 RMK A01 T00630006  RH  067%=      5-min Rain = 0
KLE1 222251Z 06005KT 06/01 A3008 RMK A01 T00620006  RH  067%=      5-min Rain = 0
KLE1 222252Z 05005KT 06/01 A3008 RMK A01 T00630007  RH  067%=      5-min Rain = 0
KLE1 222253Z 05004KT 06/01 A3008 RMK A01 T00630006  RH  067%=      5-min Rain = 0
KLE1 222254Z 03004KT 06/01 A3008 RMK A01 T00620005  RH  067%=      5-min Rain = 0
KLE1 222255Z 05004KT 06/01 A3008 RMK A01 T00620005  RH  067%=      5-min Rain = 0
KLE1 222256Z 05004KT 06/01 A3008 RMK A01 T00620006  RH  067%=      5-min Rain = 0
KLE1 222257Z 05005KT 06/01 A3008 RMK A01 T00620007  RH  068%=      5-min Rain = 0
KLE1 222258Z 05004KT 06/01 A3008 RMK A01 T00620006  RH  067%=      5-min Rain = 0
KLE1 222259Z 06004KT 06/01 A3008 RMK A01 T00620006  RH  068%=      5-min Rain = 0
KLE1 222300Z 07004KT 06/01 A3008 RMK A01 T00620008  RH  068%=      5-min Rain = 0
KLE1 222301Z 06004KT 06/01 A3008 RMK A01 T00620005  RH  067%=      5-min Rain = 0
KLE1 222302Z 05004KT 06/01 A3008 RMK A01 T00620006  RH  068%=      5-min Rain = 0
KLE1 222303Z 05004KT 06/01 A3008 RMK A01 T00620008  RH  068%=      5-min Rain = 0
KLE1 222304Z 06004KT 06/01 A3008 RMK A01 T00620007  RH  068%=      5-min Rain = 0
KLE1 222305Z 05004KT 06/01 A3008 RMK A01 T00620007  RH  068%=      5-min Rain = 0
KLE1 222306Z 05004KT 06/01 A3008 RMK A01 T00620006  RH  067%=      5-min Rain = 0
KLE1 222307Z 07004KT 06/01 A3008 RMK A01 T00620005  RH  067%=      5-min Rain = 0
KLE1 222308Z 07004KT 06/01 A3008 RMK A01 T00620008  RH  068%=      5-min Rain = 0
KLE1 222309Z 08004KT 06/01 A3008 RMK A01 T00620009  RH  069%=      5-min Rain = 0
KLE1 222310Z 07004KT 06/01 A3008 RMK A01 T00620007  RH  068%=      5-min Rain = 0
KLE1 222311Z 07003KT 06/01 A3008 RMK A01 T00620005  RH  067%=      5-min Rain = 0
KLE1 222312Z 07004KT 06/01 A3008 RMK A01 T00620005  RH  067%=      5-min Rain = 0
KLE1 222313Z 07004KT 06/00 A3008 RMK A01 T00610004  RH  067%=      5-min Rain = 0
KLE1 222314Z 06004KT 06/00 A3008 RMK A01 T00610004  RH  067%=      5-min Rain = 0
KLE1 222315Z 07005KT 06/00 A3008 RMK A01 T00610004  RH  067%=      5-min Rain = 0
KLE1 222316Z 07005KT 06/01 A3008 RMK A01 T00610005  RH  067%=      5-min Rain = 0
KLE1 222317Z 06005KT 06/01 A3008 RMK A01 T00610005  RH  067%=      5-min Rain = 0
KLE1 222318Z 06005KT 06/01 A3008 RMK A01 T00610007  RH  068%=      5-min Rain = 0
KLE1 222319Z 07006KT 06/01 A3008 RMK A01 T00610008  RH  069%=      5-min Rain = 0
KLE1 222320Z 07006KT 06/01 A3008 RMK A01 T00610009  RH  070%=      5-min Rain = 0
KLE1 222321Z 07005KT 06/01 A3008 RMK A01 T00610011  RH  071%=      5-min Rain = 0
KLE1 222322Z 06006KT 06/01 A3008 RMK A01 T00600011  RH  071%=      5-min Rain = 0
KLE1 222323Z 07006KT 06/01 A3008 RMK A01 T00600008  RH  069%=      5-min Rain = 0
KLE1 222324Z 07006KT 06/01 A3008 RMK A01 T00600009  RH  070%=      5-min Rain = 0
KLE1 222325Z 06005KT 06/01 A3008 RMK A01 T00600009  RH  070%=      5-min Rain = 0
KLE1 222326Z 06006KT 06/01 A3008 RMK A01 T00590010  RH  071%=      5-min Rain = 0
KLE1 222327Z 06007KT 06/01 A3008 RMK A01 T00590008  RH  070%=      5-min Rain = 0
KLE1 222328Z 06007KT 06/01 A3008 RMK A01 T00580006  RH  069%=      5-min Rain = 0
KLE1 222329Z 06006KT 06/01 A3008 RMK A01 T00590006  RH  069%=      5-min Rain = 0
KLE1 222330Z 06006KT 06/01 A3008 RMK A01 T00590006  RH  069%=      5-min Rain = 0
KLE1 222331Z 06006KT 06/01 A3008 RMK A01 T00580007  RH  069%=      5-min Rain = 0
KLE1 222332Z 05005KT 06/01 A3008 RMK A01 T00580007  RH  070%=      5-min Rain = 0
KLE1 222333Z 04006KT 06/01 A3008 RMK A01 T00580009  RH  070%=      5-min Rain = 0
KLE1 222334Z 05006KT 06/01 A3008 RMK A01 T00580008  RH  070%=      5-min Rain = 0
KLE1 222335Z 05006KT 06/01 A3008 RMK A01 T00580006  RH  069%=      5-min Rain = 0
KLE1 222336Z 05006KT 06/01 A3008 RMK A01 T00580006  RH  069%=      5-min Rain = 0
KLE1 222337Z 05006KT 06/01 A3008 RMK A01 T00580005  RH  069%=      5-min Rain = 0
KLE1 222338Z 05006KT 06/00 A3008 RMK A01 T00580004  RH  068%=      5-min Rain = 0
KLE1 222339Z 05006KT 06/01 A3008 RMK A01 T00580006  RH  069%=      5-min Rain = 0
KLE1 222340Z 06006KT 06/01 A3008 RMK A01 T00580006  RH  070%=      5-min Rain = 0
KLE1 222341Z 06005KT 06/01 A3008 RMK A01 T00580008  RH  070%=      5-min Rain = 0
KLE1 222342Z 06007KT 06/01 A3008 RMK A01 T00570009  RH  071%=      5-min Rain = 0
KLE1 222343Z 05007KT 06/01 A3008 RMK A01 T00570008  RH  070%=      5-min Rain = 0
KLE1 222344Z 06006KT 06/01 A3008 RMK A01 T00580007  RH  070%=      5-min Rain = 0
KLE1 222345Z 06006KT 06/01 A3008 RMK A01 T00570006  RH  070%=      5-min Rain = 0
KLE1 222346Z 06007KT 06/01 A3008 RMK A01 T00570006  RH  069%=      5-min Rain = 0
KLE1 222347Z 06007KT 06/01 A3008 RMK A01 T00570006  RH  070%=      5-min Rain = 0
KLE1 222348Z 06007KT 06/01 A3008 RMK A01 T00570007  RH  070%=      5-min Rain = 0
KLE1 222349Z 06006KT 06/01 A3008 RMK A01 T00560007  RH  070%=      5-min Rain = 0
KLE1 222350Z 05007KT 06/01 A3008 RMK A01 T00570008  RH  071%=      5-min Rain = 0
KLE1 222351Z 05007KT 06/01 A3008 RMK A01 T00570007  RH  071%=      5-min Rain = 0
KLE1 222352Z 06007KT 06/01 A3008 RMK A01 T00560007  RH  071%=      5-min Rain = 0
KLE1 222353Z 07008KT 06/01 A3007 RMK A01 T00560008  RH  071%=      5-min Rain = 0
KLE1 222354Z 07008KT 06/01 A3007 RMK A01 T00560007  RH  071%=      5-min Rain = 0
KLE1 222355Z 07008KT 06/01 A3007 RMK A01 T00560007  RH  070%=      5-min Rain = 0
KLE1 222356Z 07008KT 06/01 A3007 RMK A01 T00560006  RH  070%=      5-min Rain = 0
KLE1 222357Z 07007KT 06/01 A3007 RMK A01 T00560006  RH  071%=      5-min Rain = 0
KLE1 222358Z 08008KT 06/01 A3007 RMK A01 T00560008  RH  071%=      5-min Rain = 0
KLE1 222359Z 08007KT 06/01 A3007 RMK A01 T00560007  RH  071%=      5-min Rain = 0
KLE1 230000Z 08007KT 06/01 A3007 RMK A01 T00560007  RH  071%=      5-min Rain = 0
KLE1 230001Z 08007KT 06/01 A3007 RMK A01 T00550006  RH  070%=      5-min Rain = 0
KLE1 230002Z 08005KT 06/01 A3007 RMK A01 T00550006  RH  071%=      5-min Rain = 0
KLE1 230003Z 07006KT 06/01 A3007 RMK A01 T00550007  RH  071%=      5-min Rain = 0
KLE1 230004Z 07006KT 06/01 A3008 RMK A01 T00550007  RH  071%=      5-min Rain = 0
KLE1 230005Z 07007KT 06/01 A3008 RMK A01 T00550006  RH  071%=      5-min Rain = 0
KLE1 230006Z 07006KT 06/01 A3008 RMK A01 T00550005  RH  070%=      5-min Rain = 0
KLE1 230007Z 06006KT 06/00 A3008 RMK A01 T00550004  RH  070%=      5-min Rain = 0
KLE1 230008Z 06007KT 06/01 A3008 RMK A01 T00550005  RH  070%=      5-min Rain = 0
KLE1 230009Z 06007KT 06/01 A3007 RMK A01 T00550005  RH  071%=      5-min Rain = 0
KLE1 230010Z 06007KT 05/01 A3007 RMK A01 T00540005  RH  071%=      5-min Rain = 0
KLE1 230011Z 06007KT 05/01 A3007 RMK A01 T00540006  RH  071%=      5-min Rain = 0
KLE1 230012Z 06006KT 05/01 A3007 RMK A01 T00540006  RH  071%=      5-min Rain = 0
KLE1 230013Z 07007KT 05/01 A3007 RMK A01 T00540008  RH  072%=      5-min Rain = 0
KLE1 230014Z 08006KT 05/01 A3007 RMK A01 T00540006  RH  071%=      5-min Rain = 0
KLE1 230015Z 08006KT 05/01 A3007 RMK A01 T00540006  RH  071%=      5-min Rain = 0
KLE1 230016Z 08007KT 05/01 A3007 RMK A01 T00540007  RH  072%=      5-min Rain = 0
KLE1 230017Z 08007KT 05/01 A3007 RMK A01 T00540005  RH  071%=      5-min Rain = 0
KLE1 230018Z 09007KT 05/01 A3007 RMK A01 T00530006  RH  071%=      5-min Rain = 0
KLE1 230019Z 09008KT 05/01 A3006 RMK A01 T00530007  RH  072%=      5-min Rain = 0
KLE1 230020Z 11009KT 05/01 A3006 RMK A01 T00530007  RH  072%=      5-min Rain = 0
KLE1 230021Z 10011KT 05/01 A3006 RMK A01 T00520007  RH  072%=      5-min Rain = 0
KLE1 230022Z 10010KT 05/01 A3006 RMK A01 T00520006  RH  072%=      5-min Rain = 0
KLE1 230023Z 10009KT 05/01 A3006 RMK A01 T00510007  RH  073%=      5-min Rain = 0
KLE1 230024Z 09008KT 05/01 A3006 RMK A01 T00500007  RH  073%=      5-min Rain = 0
KLE1 230025Z 08008KT 05/01 A3007 RMK A01 T00490006  RH  074%=      5-min Rain = 0
KLE1 230026Z 07007KT 05/01 A3007 RMK A01 T00490006  RH  074%=      5-min Rain = 0
KLE1 230027Z 07007KT 05/01 A3007 RMK A01 T00480006  RH  074%=      5-min Rain = 0
KLE1 230028Z 07008KT 05/01 A3007 RMK A01 T00480006  RH  074%=      5-min Rain = 0
KLE1 230029Z 07008KT 05/01 A3007 RMK A01 T00480007  RH  074%=      5-min Rain = 0
KLE1 230030Z 07007KT 05/01 A3007 RMK A01 T00480006  RH  074%=      5-min Rain = 0
KLE1 230031Z 07007KT 05/01 A3007 RMK A01 T00470006  RH  074%=      5-min Rain = 0
KLE1 230032Z 07007KT 05/01 A3007 RMK A01 T00470005  RH  074%=      5-min Rain = 0
KLE1 230033Z 06007KT 05/01 A3007 RMK A01 T00470006  RH  075%=      5-min Rain = 0
KLE1 230034Z 06008KT 05/01 A3008 RMK A01 T00470006  RH  075%=      5-min Rain = 0
KLE1 230035Z 06007KT 05/01 A3008 RMK A01 T00470006  RH  075%=      5-min Rain = 0
KLE1 230036Z 06006KT 05/01 A3008 RMK A01 T00470007  RH  075%=      5-min Rain = 0
KLE1 230037Z 06006KT 05/01 A3008 RMK A01 T00470008  RH  076%=      5-min Rain = 0
KLE1 230038Z 06006KT 05/01 A3008 RMK A01 T00480008  RH  076%=      5-min Rain = 0
KLE1 230039Z 06005KT 05/01 A3008 RMK A01 T00480009  RH  076%=      5-min Rain = 0
KLE1 230040Z 07006KT 05/01 A3008 RMK A01 T00480009  RH  076%=      5-min Rain = 0
KLE1 230041Z 06005KT 05/01 A3008 RMK A01 T00480008  RH  075%=      5-min Rain = 0
KLE1 230042Z 06006KT 05/01 A3008 RMK A01 T00480008  RH  076%=      5-min Rain = 0
KLE1 230043Z 05006KT 05/01 A3008 RMK A01 T00480009  RH  076%=      5-min Rain = 0
KLE1 230044Z 05006KT 05/01 A3008 RMK A01 T00480008  RH  075%=      5-min Rain = 0
KLE1 230045Z 05006KT 05/01 A3008 RMK A01 T00480009  RH  075%=      5-min Rain = 0
KLE1 230046Z 06006KT 05/01 A3008 RMK A01 T00480008  RH  075%=      5-min Rain = 0
KLE1 230047Z 06006KT 05/01 A3008 RMK A01 T00490008  RH  075%=      5-min Rain = 0
KLE1 230048Z 06006KT 05/01 A3008 RMK A01 T00490008  RH  075%=      5-min Rain = 0
KLE1 230049Z 06006KT 05/01 A3008 RMK A01 T00490008  RH  075%=      5-min Rain = 0
KLE1 230050Z 07006KT 05/01 A3008 RMK A01 T00490009  RH  075%=      5-min Rain = 0
KLE1 230051Z 06007KT 05/01 A3008 RMK A01 T00490009  RH  076%=      5-min Rain = 0
KLE1 230052Z 06007KT 05/01 A3008 RMK A01 T00490010  RH  076%=      5-min Rain = 0
KLE1 230053Z 06007KT 05/01 A3008 RMK A01 T00490009  RH  076%=      5-min Rain = 0
KLE1 230054Z 06007KT 05/01 A3008 RMK A01 T00490009  RH  076%=      5-min Rain = 0
KLE1 230055Z 06007KT 05/01 A3008 RMK A01 T00480009  RH  076%=      5-min Rain = 0
KLE1 230056Z 07006KT 05/01 A3008 RMK A01 T00480009  RH  076%=      5-min Rain = 0
KLE1 230057Z 07008KT 05/01 A3008 RMK A01 T00480009  RH  076%=      5-min Rain = 0
KLE1 230058Z 07007KT 05/01 A3008 RMK A01 T00480007  RH  075%=      5-min Rain = 0
KLE1 230059Z 06008KT 05/01 A3008 RMK A01 T00490009  RH  076%=      5-min Rain = 0
KLE1 230100Z 07008KT 05/01 A3008 RMK A01 T00480008  RH  075%=      5-min Rain = 0
KLE1 230101Z 07007KT 05/01 A3008 RMK A01 T00480008  RH  075%=      5-min Rain = 0
KLE1 230102Z 07006KT 05/01 A3008 RMK A01 T00480008  RH  075%=      5-min Rain = 0
KLE1 230103Z 07008KT 05/01 A3008 RMK A01 T00480009  RH  076%=      5-min Rain = 0
KLE1 230104Z 07007KT 05/01 A3008 RMK A01 T00480009  RH  076%=      5-min Rain = 0
KLE1 230105Z 07007KT 05/01 A3008 RMK A01 T00480009  RH  076%=      5-min Rain = 0
KLE1 230106Z 07007KT 05/01 A3008 RMK A01 T00480009  RH  076%=      5-min Rain = 0
KLE1 230107Z 07007KT 05/01 A3008 RMK A01 T00480009  RH  076%=      5-min Rain = 0
KLE1 230108Z 07008KT 05/01 A3008 RMK A01 T00480008  RH  076%=      5-min Rain = 0
KLE1 230109Z 08008KT 05/01 A3008 RMK A01 T00470007  RH  075%=      5-min Rain = 0
KLE1 230110Z 07008KT 05/01 A3008 RMK A01 T00470007  RH  075%=      5-min Rain = 0
KLE1 230111Z 07008KT 05/01 A3008 RMK A01 T00470006  RH  075%=      5-min Rain = 0
KLE1 230112Z 08007KT 05/01 A3008 RMK A01 T00480008  RH  075%=      5-min Rain = 0
KLE1 230113Z 07008KT 05/01 A3008 RMK A01 T00470008  RH  076%=      5-min Rain = 0
KLE1 230114Z 07010KT 05/01 A3008 RMK A01 T00470007  RH  075%=      5-min Rain = 0
KLE1 230115Z 08009KT 05/01 A3008 RMK A01 T00470005  RH  074%=      5-min Rain = 0
KLE1 230116Z 08009KT 05/01 A3008 RMK A01 T00470006  RH  075%=      5-min Rain = 0
KLE1 230117Z 07008KT 05/01 A3008 RMK A01 T00470006  RH  075%=      5-min Rain = 0
KLE1 230118Z 08009KT 05/01 A3008 RMK A01 T00470008  RH  076%=      5-min Rain = 0
KLE1 230119Z 07008KT 05/01 A3008 RMK A01 T00470007  RH  075%=      5-min Rain = 0
KLE1 230120Z 08008KT 05/01 A3008 RMK A01 T00460007  RH  075%=      5-min Rain = 0
KLE1 230121Z 08009KT 05/01 A3008 RMK A01 T00460007  RH  075%=      5-min Rain = 0
KLE1 230122Z 08008KT 05/01 A3008 RMK A01 T00460006  RH  075%=      5-min Rain = 0
KLE1 230123Z 08007KT 05/01 A3008 RMK A01 T00460007  RH  076%=      5-min Rain = 0
KLE1 230124Z 07008KT 05/01 A3008 RMK A01 T00460007  RH  076%=      5-min Rain = 0
KLE1 230125Z 07007KT 05/01 A3008 RMK A01 T00460007  RH  075%=      5-min Rain = 0
KLE1 230126Z 08009KT 05/01 A3008 RMK A01 T00460007  RH  076%=      5-min Rain = 0
KLE1 230127Z 07008KT 05/01 A3008 RMK A01 T00460007  RH  076%=      5-min Rain = 0
KLE1 230128Z 07008KT 05/01 A3008 RMK A01 T00460007  RH  076%=      5-min Rain = 0
KLE1 230129Z 07009KT 05/01 A3008 RMK A01 T00460006  RH  075%=      5-min Rain = 0
KLE1 230130Z 08009KT 05/01 A3008 RMK A01 T00460005  RH  075%=      5-min Rain = 0
KLE1 230131Z 07008KT 05/01 A3008 RMK A01 T00450005  RH  075%=      5-min Rain = 0
KLE1 230132Z 07008KT 05/01 A3008 RMK A01 T00460007  RH  076%=      5-min Rain = 0
KLE1 230133Z 07008KT 05/01 A3008 RMK A01 T00450006  RH  075%=      5-min Rain = 0
KLE1 230134Z 07007KT 05/01 A3008 RMK A01 T00460006  RH  075%=      5-min Rain = 0
KLE1 230135Z 07008KT 05/01 A3008 RMK A01 T00450006  RH  076%=      5-min Rain = 0
KLE1 230136Z 07007KT 05/01 A3008 RMK A01 T00450006  RH  076%=      5-min Rain = 0
KLE1 230137Z 07007KT 05/01 A3008 RMK A01 T00460007  RH  076%=      5-min Rain = 0
KLE1 230138Z 08007KT 05/01 A3008 RMK A01 T00460006  RH  076%=      5-min Rain = 0
KLE1 230139Z 08008KT 05/01 A3008 RMK A01 T00460006  RH  075%=      5-min Rain = 0
KLE1 230140Z 08006KT 05/01 A3008 RMK A01 T00460006  RH  076%=      5-min Rain = 0
KLE1 230141Z 08006KT 05/01 A3008 RMK A01 T00460008  RH  077%=      5-min Rain = 0
KLE1 230142Z 08007KT 05/01 A3008 RMK A01 T00450008  RH  077%=      5-min Rain = 0
KLE1 230143Z 07008KT 05/01 A3008 RMK A01 T00450007  RH  076%=      5-min Rain = 0
KLE1 230144Z 07007KT 05/01 A3008 RMK A01 T00450005  RH  075%=      5-min Rain = 0
KLE1 230145Z 08007KT 05/01 A3008 RMK A01 T00450005  RH  075%=      5-min Rain = 0
KLE1 230146Z 08008KT 05/00 A3008 RMK A01 T00450004  RH  075%=      5-min Rain = 0
KLE1 230147Z 08006KT 05/00 A3008 RMK A01 T00450004  RH  075%=      5-min Rain = 0
KLE1 230148Z 08006KT 05/01 A3008 RMK A01 T00450007  RH  076%=      5-min Rain = 0
KLE1 230149Z 08007KT 05/01 A3009 RMK A01 T00450007  RH  076%=      5-min Rain = 0
KLE1 230150Z 08005KT 05/01 A3009 RMK A01 T00450007  RH  076%=      5-min Rain = 0
KLE1 230151Z 08007KT 05/01 A3009 RMK A01 T00450008  RH  077%=      5-min Rain = 0
KLE1 230152Z 08009KT 05/01 A3009 RMK A01 T00450005  RH  075%=      5-min Rain = 0
KLE1 230153Z 08008KT 05/00 A3008 RMK A01 T00450004  RH  075%=      5-min Rain = 0
KLE1 230154Z 08008KT 05/01 A3008 RMK A01 T00450005  RH  075%=      5-min Rain = 0
KLE1 230155Z 09008KT 05/01 A3008 RMK A01 T00450005  RH  075%=      5-min Rain = 0
KLE1 230156Z 09007KT 05/01 A3008 RMK A01 T00450006  RH  076%=      5-min Rain = 0
KLE1 230157Z 09008KT 05/01 A3008 RMK A01 T00450006  RH  076%=      5-min Rain = 0
KLE1 230158Z 09008KT 05/01 A3008 RMK A01 T00450006  RH  076%=      5-min Rain = 0
KLE1 230159Z 09007KT 05/01 A3008 RMK A01 T00450005  RH  075%=      5-min Rain = 0
KLE1 230200Z 08007KT 04/01 A3008 RMK A01 T00440006  RH  076%=      5-min Rain = 0
KLE1 230201Z 08007KT 05/01 A3008 RMK A01 T00450006  RH  076%=      5-min Rain = 0
KLE1 230202Z 07008KT 05/01 A3009 RMK A01 T00450006  RH  076%=      5-min Rain = 0
KLE1 230203Z 08007KT 05/01 A3009 RMK A01 T00450005  RH  075%=      5-min Rain = 0
KLE1 230204Z 08007KT 05/01 A3009 RMK A01 T00450005  RH  076%=      5-min Rain = 0
KLE1 230205Z 09006KT 04/01 A3009 RMK A01 T00440006  RH  076%=      5-min Rain = 0
KLE1 230206Z 09007KT 05/01 A3009 RMK A01 T00450007  RH  076%=      5-min Rain = 0
KLE1 230207Z 09008KT 05/01 A3009 RMK A01 T00450008  RH  077%=      5-min Rain = 0
KLE1 230208Z 08008KT 04/01 A3008 RMK A01 T00440005  RH  076%=      5-min Rain = 0
KLE1 230209Z 09007KT 05/01 A3008 RMK A01 T00450006  RH  076%=      5-min Rain = 0
KLE1 230210Z 09007KT 05/01 A3008 RMK A01 T00450006  RH  076%=      5-min Rain = 0
KLE1 230211Z 09008KT 05/01 A3008 RMK A01 T00450006  RH  076%=      5-min Rain = 0
KLE1 230212Z 09008KT 04/00 A3008 RMK A01 T00440004  RH  075%=      5-min Rain = 0
KLE1 230213Z 09007KT 04/01 A3009 RMK A01 T00440005  RH  076%=      5-min Rain = 0
KLE1 230214Z 09007KT 04/01 A3009 RMK A01 T00440006  RH  076%=      5-min Rain = 0
KLE1 230215Z 09007KT 04/01 A3009 RMK A01 T00440006  RH  076%=      5-min Rain = 0
KLE1 230216Z 09006KT 04/01 A3009 RMK A01 T00440005  RH  076%=      5-min Rain = 0
KLE1 230217Z 09006KT 04/01 A3009 RMK A01 T00440007  RH  077%=      5-min Rain = 0
KLE1 230218Z 09006KT 04/01 A3009 RMK A01 T00440007  RH  077%=      5-min Rain = 0
KLE1 230219Z 09006KT 04/01 A3009 RMK A01 T00440006  RH  076%=      5-min Rain = 0
KLE1 230220Z 09006KT 04/01 A3009 RMK A01 T00440005  RH  076%=      5-min Rain = 0
KLE1 230221Z 10006KT 04/01 A3009 RMK A01 T00440006  RH  076%=      5-min Rain = 0
KLE1 230222Z 10006KT 04/01 A3009 RMK A01 T00440006  RH  076%=      5-min Rain = 0
KLE1 230223Z 10006KT 04/01 A3009 RMK A01 T00440006  RH  076%=      5-min Rain = 0
KLE1 230224Z 10007KT 04/01 A3009 RMK A01 T00440006  RH  076%=      5-min Rain = 0
KLE1 230225Z 09007KT 04/01 A3009 RMK A01 T00440005  RH  075%=      5-min Rain = 0
KLE1 230226Z 09006KT 04/01 A3009 RMK A01 T00440006  RH  076%=      5-min Rain = 0
KLE1 230227Z 09006KT 04/01 A3009 RMK A01 T00440006  RH  076%=      5-min Rain = 0
KLE1 230228Z 09006KT 04/01 A3009 RMK A01 T00440006  RH  076%=      5-min Rain = 0
KLE1 230229Z 09006KT 04/01 A3009 RMK A01 T00440007  RH  077%=      5-min Rain = 0
KLE1 230230Z 10007KT 04/01 A3009 RMK A01 T00440007  RH  077%=      5-min Rain = 0
KLE1 230231Z 10006KT 04/01 A3009 RMK A01 T00440006  RH  076%=      5-min Rain = 0
KLE1 230232Z 10007KT 04/01 A3009 RMK A01 T00440006  RH  076%=      5-min Rain = 0
KLE1 230233Z 09006KT 04/01 A3009 RMK A01 T00440006  RH  076%=      5-min Rain = 0
KLE1 230234Z 10006KT 04/01 A3009 RMK A01 T00440007  RH  077%=      5-min Rain = 0
KLE1 230235Z 10006KT 04/01 A3009 RMK A01 T00440008  RH  077%=      5-min Rain = 0
KLE1 230236Z 10006KT 04/01 A3009 RMK A01 T00440007  RH  077%=      5-min Rain = 0
KLE1 230237Z 10007KT 04/01 A3009 RMK A01 T00440008  RH  077%=      5-min Rain = 0
KLE1 230238Z 10006KT 04/01 A3009 RMK A01 T00440007  RH  077%=      5-min Rain = 0
KLE1 230239Z 10007KT 04/01 A3009 RMK A01 T00440007  RH  077%=      5-min Rain = 0
KLE1 230240Z 10006KT 04/01 A3009 RMK A01 T00440007  RH  077%=      5-min Rain = 0
KLE1 230241Z 10007KT 04/01 A3009 RMK A01 T00440009  RH  078%=      5-min Rain = 0
KLE1 230242Z 11007KT 04/01 A3009 RMK A01 T00440008  RH  078%=      5-min Rain = 0
KLE1 230243Z 10006KT 04/01 A3009 RMK A01 T00440008  RH  077%=      5-min Rain = 0
KLE1 230244Z 10004KT 04/01 A3009 RMK A01 T00440009  RH  078%=      5-min Rain = 0
KLE1 230245Z 10005KT 04/01 A301 RMK A01 T00440010  RH  079%=      5-min Rain = 0
KLE1 230246Z 11005KT 04/01 A301 RMK A01 T00440010  RH  079%=      5-min Rain = 0
KLE1 230247Z 11006KT 04/01 A3009 RMK A01 T00440009  RH  078%=      5-min Rain = 0
KLE1 230248Z 10006KT 04/01 A3009 RMK A01 T00440008  RH  077%=      5-min Rain = 0
KLE1 230249Z 11007KT 04/01 A3009 RMK A01 T00440007  RH  077%=      5-min Rain = 0
KLE1 230250Z 10007KT 04/01 A3009 RMK A01 T00440007  RH  077%=      5-min Rain = 0
KLE1 230251Z 10006KT 04/01 A3009 RMK A01 T00440008  RH  078%=      5-min Rain = 0
KLE1 230252Z 09007KT 04/01 A3009 RMK A01 T00430008  RH  078%=      5-min Rain = 0
KLE1 230253Z 09006KT 04/01 A3009 RMK A01 T00430007  RH  077%=      5-min Rain = 0
KLE1 230254Z 09006KT 04/01 A3009 RMK A01 T00430007  RH  077%=      5-min Rain = 0
KLE1 230255Z 09007KT 04/01 A3009 RMK A01 T00440008  RH  077%=      5-min Rain = 0
KLE1 230256Z 09007KT 04/01 A3009 RMK A01 T00440007  RH  077%=      5-min Rain = 0
KLE1 230257Z 09007KT 04/01 A3009 RMK A01 T00430007  RH  077%=      5-min Rain = 0
KLE1 230258Z 10007KT 04/01 A3009 RMK A01 T00430007  RH  077%=      5-min Rain = 0
KLE1 230259Z 10008KT 04/01 A3009 RMK A01 T00430007  RH  077%=      5-min Rain = 0
KLE1 230300Z 09008KT 04/01 A3009 RMK A01 T00430007  RH  077%=      5-min Rain = 0
KLE1 230301Z 09008KT 04/01 A3009 RMK A01 T00430007  RH  077%=      5-min Rain = 0
KLE1 230302Z 09008KT 04/01 A3009 RMK A01 T00430006  RH  077%=      5-min Rain = 0
KLE1 230303Z 10007KT 04/01 A3009 RMK A01 T00430005  RH  077%=      5-min Rain = 0
KLE1 230304Z 09007KT 04/01 A3009 RMK A01 T00430006  RH  077%=      5-min Rain = 0
KLE1 230305Z 09007KT 04/01 A3009 RMK A01 T00430006  RH  077%=      5-min Rain = 0
KLE1 230306Z 09008KT 04/01 A3009 RMK A01 T00430005  RH  076%=      5-min Rain = 0
KLE1 230307Z 10008KT 04/00 A3009 RMK A01 T00430004  RH  076%=      5-min Rain = 0
KLE1 230308Z 10007KT 04/01 A3009 RMK A01 T00430005  RH  076%=      5-min Rain = 0
KLE1 230309Z 10006KT 04/01 A3009 RMK A01 T00430006  RH  077%=      5-min Rain = 0
KLE1 230310Z 09007KT 04/01 A3009 RMK A01 T00430007  RH  078%=      5-min Rain = 0
KLE1 230311Z 09008KT 04/01 A3009 RMK A01 T00420006  RH  077%=      5-min Rain = 0
KLE1 230312Z 10008KT 04/01 A3009 RMK A01 T00420005  RH  077%=      5-min Rain = 0
KLE1 230313Z 10008KT 04/01 A3009 RMK A01 T00430006  RH  077%=      5-min Rain = 0
KLE1 230314Z 09009KT 04/01 A3009 RMK A01 T00420006  RH  077%=      5-min Rain = 0
KLE1 230315Z 09008KT 04/00 A3009 RMK A01 T00420004  RH  076%=      5-min Rain = 0
KLE1 230316Z 09007KT 04/00 A3009 RMK A01 T00420004  RH  077%=      5-min Rain = 0
KLE1 230317Z 09007KT 04/01 A3009 RMK A01 T00420006  RH  077%=      5-min Rain = 0
KLE1 230318Z 09008KT 04/01 A3009 RMK A01 T00420006  RH  077%=      5-min Rain = 0
KLE1 230319Z 09008KT 04/01 A3009 RMK A01 T00420005  RH  077%=      5-min Rain = 0
KLE1 230320Z 09008KT 04/01 A3009 RMK A01 T00420005  RH  077%=      5-min Rain = 0
KLE1 230321Z 08007KT 04/01 A3009 RMK A01 T00420006  RH  078%=      5-min Rain = 0
KLE1 230322Z 08008KT 04/01 A3009 RMK A01 T00410007  RH  078%=      5-min Rain = 0
KLE1 230323Z 08008KT 04/01 A3009 RMK A01 T00410006  RH  078%=      5-min Rain = 0
KLE1 230324Z 08008KT 04/01 A3009 RMK A01 T00410006  RH  078%=      5-min Rain = 0
KLE1 230325Z 08007KT 04/01 A3009 RMK A01 T00410005  RH  077%=      5-min Rain = 0
KLE1 230326Z 08007KT 04/01 A3009 RMK A01 T00410006  RH  078%=      5-min Rain = 0
KLE1 230327Z 08008KT 04/01 A3009 RMK A01 T00410005  RH  077%=      5-min Rain = 0
KLE1 230328Z 08008KT 04/00 A3009 RMK A01 T00410004  RH  077%=      5-min Rain = 0
KLE1 230329Z 08008KT 04/01 A3009 RMK A01 T00410005  RH  077%=      5-min Rain = 0
KLE1 230330Z 08008KT 04/01 A3009 RMK A01 T00410005  RH  077%=      5-min Rain = 0
KLE1 230331Z 08008KT 04/01 A3009 RMK A01 T00410005  RH  077%=      5-min Rain = 0
KLE1 230332Z 09008KT 04/00 A3009 RMK A01 T00410004  RH  077%=      5-min Rain = 0
KLE1 230333Z 09008KT 04/00 A3009 RMK A01 T00400004  RH  077%=      5-min Rain = 0
KLE1 230334Z 09007KT 04/00 A3009 RMK A01 T00410004  RH  077%=      5-min Rain = 0
KLE1 230335Z 09008KT 04/01 A3009 RMK A01 T00410005  RH  078%=      5-min Rain = 0
KLE1 230336Z 09007KT 04/01 A3009 RMK A01 T00410005  RH  077%=      5-min Rain = 0
KLE1 230337Z 09008KT 04/01 A3009 RMK A01 T00410005  RH  077%=      5-min Rain = 0
KLE1 230338Z 09008KT 04/00 A3009 RMK A01 T00410004  RH  077%=      5-min Rain = 0
KLE1 230339Z 09007KT 04/00 A3009 RMK A01 T00400004  RH  077%=      5-min Rain = 0
KLE1 230340Z 09007KT 04/01 A301 RMK A01 T00410005  RH  077%=      5-min Rain = 0
KLE1 230341Z 09007KT 04/00 A301 RMK A01 T00410004  RH  077%=      5-min Rain = 0
KLE1 230342Z 08007KT 04/00 A3009 RMK A01 T00400004  RH  077%=      5-min Rain = 0
KLE1 230343Z 08007KT 04/01 A3009 RMK A01 T00410005  RH  077%=      5-min Rain = 0
KLE1 230344Z 08008KT 04/01 A3009 RMK A01 T00410005  RH  078%=      5-min Rain = 0
KLE1 230345Z 08007KT 04/00 A301 RMK A01 T00400004  RH  077%=      5-min Rain = 0
KLE1 230346Z 08007KT 04/01 A301 RMK A01 T00400005  RH  078%=      5-min Rain = 0
KLE1 230347Z 08007KT 04/00 A301 RMK A01 T00400004  RH  077%=      5-min Rain = 0
KLE1 230348Z 09008KT 04/00 A301 RMK A01 T00400003  RH  077%=      5-min Rain = 0
KLE1 230349Z 09007KT 04/00 A3009 RMK A01 T00400002  RH  076%=      5-min Rain = 0
KLE1 230350Z 09007KT 04/00 A3009 RMK A01 T00400003  RH  077%=      5-min Rain = 0
KLE1 230351Z 10007KT 04/00 A3009 RMK A01 T00400004  RH  077%=      5-min Rain = 0
KLE1 230352Z 09006KT 04/00 A3009 RMK A01 T00400004  RH  078%=      5-min Rain = 0
KLE1 230353Z 09006KT 04/01 A3009 RMK A01 T00400005  RH  078%=      5-min Rain = 0
KLE1 230354Z 09006KT 04/01 A3009 RMK A01 T00400006  RH  078%=      5-min Rain = 0
KLE1 230355Z 09005KT 04/01 A3009 RMK A01 T00400006  RH  079%=      5-min Rain = 0
KLE1 230356Z 09006KT 04/01 A3009 RMK A01 T00390007  RH  079%=      5-min Rain = 0
KLE1 230357Z 09005KT 04/01 A3009 RMK A01 T00400007  RH  079%=      5-min Rain = 0
KLE1 230358Z 09005KT 04/01 A3009 RMK A01 T00400008  RH  080%=      5-min Rain = 0
KLE1 230359Z 10005KT 04/01 A3009 RMK A01 T00400008  RH  080%=      5-min Rain = 0
KLE1 230400Z 10006KT 04/01 A3009 RMK A01 T00390008  RH  080%=      5-min Rain = 0
KLE1 230401Z 09006KT 04/01 A3009 RMK A01 T00400008  RH  080%=      5-min Rain = 0
KLE1 230402Z 09006KT 04/01 A3009 RMK A01 T00400007  RH  079%=      5-min Rain = 0
KLE1 230403Z 09006KT 04/01 A3009 RMK A01 T00400005  RH  078%=      5-min Rain = 0
KLE1 230404Z 09005KT 04/01 A3009 RMK A01 T00400005  RH  078%=      5-min Rain = 0
KLE1 230405Z 09005KT 04/01 A301 RMK A01 T00400006  RH  079%=      5-min Rain = 0
KLE1 230406Z 08006KT 04/01 A301 RMK A01 T00400005  RH  078%=      5-min Rain = 0
KLE1 230407Z 09006KT 04/00 A301 RMK A01 T00400003  RH  077%=      5-min Rain = 0
KLE1 230408Z 09005KT 04/00 A301 RMK A01 T00390002  RH  077%=      5-min Rain = 0
KLE1 230409Z 09005KT 04/00 A301 RMK A01 T00390003  RH  077%=      5-min Rain = 0
KLE1 230410Z 09005KT 04/00 A301 RMK A01 T00390003  RH  077%=      5-min Rain = 0
KLE1 230411Z 10005KT 04/00 A301 RMK A01 T00390003  RH  077%=      5-min Rain = 0
KLE1 230412Z 09006KT 04/00 A301 RMK A01 T00390002  RH  077%=      5-min Rain = 0
KLE1 230413Z 10006KT 04/00 A301 RMK A01 T00390002  RH  077%=      5-min Rain = 0
KLE1 230414Z 10006KT 04/00 A301 RMK A01 T00390002  RH  076%=      5-min Rain = 0
KLE1 230415Z 10006KT 04/00 A301 RMK A01 T00390003  RH  077%=      5-min Rain = 0
KLE1 230416Z 10006KT 04/00 A301 RMK A01 T00390003  RH  077%=      5-min Rain = 0
KLE1 230417Z 11006KT 04/00 A301 RMK A01 T00390003  RH  077%=      5-min Rain = 0
KLE1 230418Z 10005KT 04/00 A301 RMK A01 T00390004  RH  078%=      5-min Rain = 0
KLE1 230419Z 11006KT 04/00 A301 RMK A01 T00390004  RH  078%=      5-min Rain = 0
KLE1 230420Z 11006KT 04/00 A3009 RMK A01 T00390004  RH  078%=      5-min Rain = 0
KLE1 230421Z 11006KT 04/00 A3009 RMK A01 T00390004  RH  078%=      5-min Rain = 0
KLE1 230422Z 12006KT 04/01 A3009 RMK A01 T00390005  RH  078%=      5-min Rain = 0
KLE1 230423Z 11007KT 04/01 A3009 RMK A01 T00390005  RH  078%=      5-min Rain = 0
KLE1 230424Z 11006KT 04/00 A301 RMK A01 T00390004  RH  078%=      5-min Rain = 0
KLE1 230425Z 11005KT 04/01 A301 RMK A01 T00390005  RH  078%=      5-min Rain = 0
KLE1 230426Z 12006KT 04/01 A301 RMK A01 T00390005  RH  079%=      5-min Rain = 0
KLE1 230427Z 11006KT 04/00 A301 RMK A01 T00390004  RH  078%=      5-min Rain = 0
KLE1 230428Z 12006KT 04/00 A301 RMK A01 T00390004  RH  078%=      5-min Rain = 0
KLE1 230429Z 12007KT 04/00 A301 RMK A01 T00390004  RH  078%=      5-min Rain = 0
KLE1 230430Z 12007KT 04/00 A301 RMK A01 T00390003  RH  077%=      5-min Rain = 0
KLE1 230431Z 12007KT 04/00 A301 RMK A01 T00390003  RH  077%=      5-min Rain = 0
KLE1 230432Z 11008KT 04/00 A301 RMK A01 T00390003  RH  077%=      5-min Rain = 0
KLE1 230433Z 11006KT 04/00 A301 RMK A01 T00390002  RH  077%=      5-min Rain = 0
KLE1 230434Z 11005KT 04/00 A301 RMK A01 T00390003  RH  078%=      5-min Rain = 0
KLE1 230435Z 11005KT 04/01 A301 RMK A01 T00390006  RH  079%=      5-min Rain = 0
KLE1 230436Z 11004KT 04/01 A301 RMK A01 T00390006  RH  079%=      5-min Rain = 0
KLE1 230437Z 11004KT 04/01 A301 RMK A01 T00390006  RH  079%=      5-min Rain = 0
KLE1 230438Z 11005KT 04/01 A301 RMK A01 T00390006  RH  079%=      5-min Rain = 0
KLE1 230439Z 11005KT 04/01 A301 RMK A01 T00390006  RH  079%=      5-min Rain = 0
KLE1 230440Z 11006KT 04/01 A301 RMK A01 T00390005  RH  079%=      5-min Rain = 0
KLE1 230441Z 11006KT 04/00 A301 RMK A01 T00390004  RH  078%=      5-min Rain = 0
KLE1 230442Z 12006KT 04/00 A301 RMK A01 T00380004  RH  078%=      5-min Rain = 0
KLE1 230443Z 11006KT 04/00 A301 RMK A01 T00380004  RH  078%=      5-min Rain = 0
KLE1 230444Z 11007KT 04/00 A301 RMK A01 T00380003  RH  078%=      5-min Rain = 0
KLE1 230445Z 11006KT 04/00 A301 RMK A01 T00380003  RH  078%=      5-min Rain = 0
KLE1 230446Z 12006KT 04/00 A301 RMK A01 T00380003  RH  078%=      5-min Rain = 0
KLE1 230447Z 12006KT 04/00 A301 RMK A01 T00380004  RH  078%=      5-min Rain = 0
KLE1 230448Z 12006KT 04/01 A3009 RMK A01 T00380005  RH  079%=      5-min Rain = 0
KLE1 230449Z 12006KT 04/01 A301 RMK A01 T00380006  RH  079%=      5-min Rain = 0
KLE1 230450Z 12005KT 04/01 A301 RMK A01 T00380006  RH  080%=      5-min Rain = 0
KLE1 230451Z 12007KT 04/01 A301 RMK A01 T00380006  RH  079%=      5-min Rain = 0
KLE1 230452Z 12006KT 04/00 A301 RMK A01 T00380004  RH  078%=      5-min Rain = 0
KLE1 230453Z 12005KT 04/00 A301 RMK A01 T00380004  RH  078%=      5-min Rain = 0
KLE1 230454Z 12005KT 04/01 A301 RMK A01 T00380005  RH  079%=      5-min Rain = 0
KLE1 230455Z 12004KT 04/01 A301 RMK A01 T00380006  RH  079%=      5-min Rain = 0
KLE1 230456Z 12005KT 04/01 A301 RMK A01 T00390007  RH  080%=      5-min Rain = 0
KLE1 230457Z 13006KT 04/01 A301 RMK A01 T00380006  RH  080%=      5-min Rain = 0
KLE1 230458Z 13006KT 04/01 A301 RMK A01 T00380005  RH  079%=      5-min Rain = 0
KLE1 230459Z 13007KT 04/00 A301 RMK A01 T00380004  RH  079%=      5-min Rain = 0
KLE1 230500Z 12006KT 04/00 A301 RMK A01 T00380003  RH  078%=      5-min Rain = 0
KLE1 230501Z 12006KT 04/00 A301 RMK A01 T00380003  RH  078%=      5-min Rain = 0
KLE1 230502Z 12006KT 04/00 A301 RMK A01 T00380003  RH  078%=      5-min Rain = 0
KLE1 230503Z 12006KT 04/00 A301 RMK A01 T00380004  RH  079%=      5-min Rain = 0
KLE1 230504Z 12006KT 04/00 A301 RMK A01 T00380004  RH  079%=      5-min Rain = 0
KLE1 230505Z 12005KT 04/01 A301 RMK A01 T00380005  RH  079%=      5-min Rain = 0
KLE1 230506Z 12005KT 04/01 A301 RMK A01 T00380006  RH  079%=      5-min Rain = 0
KLE1 230507Z 12005KT 04/01 A301 RMK A01 T00380007  RH  080%=      5-min Rain = 0
KLE1 230508Z 12005KT 04/01 A301 RMK A01 T00380006  RH  080%=      5-min Rain = 0
KLE1 230509Z 11005KT 04/01 A301 RMK A01 T00380006  RH  079%=      5-min Rain = 0
KLE1 230510Z 11005KT 04/01 A301 RMK A01 T00380005  RH  079%=      5-min Rain = 0
KLE1 230511Z 11006KT 04/01 A301 RMK A01 T00380006  RH  080%=      5-min Rain = 0
KLE1 230512Z 11006KT 04/00 A301 RMK A01 T00370003  RH  079%=      5-min Rain = 0
KLE1 230513Z 11005KT 04/00 A301 RMK A01 T00370002  RH  078%=      5-min Rain = 0
KLE1 230514Z 12005KT 04/00 A301 RMK A01 T00370003  RH  078%=      5-min Rain = 0
KLE1 230515Z 11005KT 04/00 A301 RMK A01 T00370003  RH  078%=      5-min Rain = 0
KLE1 230516Z 12004KT 04/00 A301 RMK A01 T00370004  RH  079%=      5-min Rain = 0
KLE1 230517Z 12005KT 04/01 A301 RMK A01 T00370005  RH  079%=      5-min Rain = 0
KLE1 230518Z 13006KT 04/01 A301 RMK A01 T00370005  RH  080%=      5-min Rain = 0
KLE1 230519Z 12006KT 04/00 A301 RMK A01 T00370003  RH  078%=      5-min Rain = 0
KLE1 230520Z 12006KT 04/00 A301 RMK A01 T00370002  RH  078%=      5-min Rain = 0
KLE1 230521Z 13005KT 04/00 A301 RMK A01 T00370003  RH  079%=      5-min Rain = 0
KLE1 230522Z 13007KT 04/00 A301 RMK A01 T00370004  RH  079%=      5-min Rain = 0
KLE1 230523Z 13006KT 04/00 A301 RMK A01 T00370004  RH  079%=      5-min Rain = 0
KLE1 230524Z 12006KT 04/01 A301 RMK A01 T00370005  RH  080%=      5-min Rain = 0
KLE1 230525Z 12005KT 04/01 A301 RMK A01 T00370005  RH  080%=      5-min Rain = 0
KLE1 230526Z 12005KT 04/01 A301 RMK A01 T00370006  RH  080%=      5-min Rain = 0
KLE1 230527Z 12005KT 04/01 A301 RMK A01 T00370006  RH  080%=      5-min Rain = 0
KLE1 230528Z 12005KT 04/01 A301 RMK A01 T00370005  RH  080%=      5-min Rain = 0
KLE1 230529Z 12005KT 04/01 A301 RMK A01 T00370006  RH  080%=      5-min Rain = 0
KLE1 230530Z 12005KT 04/01 A301 RMK A01 T00370007  RH  081%=      5-min Rain = 0
KLE1 230531Z 12004KT 04/01 A301 RMK A01 T00370007  RH  081%=      5-min Rain = 0
KLE1 230532Z 12005KT 04/01 A301 RMK A01 T00370007  RH  081%=      5-min Rain = 0
KLE1 230533Z 12005KT 04/01 A301 RMK A01 T00370006  RH  080%=      5-min Rain = 0
KLE1 230534Z 11005KT 04/01 A301 RMK A01 T00370007  RH  080%=      5-min Rain = 0
KLE1 230535Z 11005KT 04/01 A301 RMK A01 T00370006  RH  080%=      5-min Rain = 0
KLE1 230536Z 11006KT 04/01 A301 RMK A01 T00370005  RH  080%=      5-min Rain = 0
KLE1 230537Z 11006KT 04/00 A301 RMK A01 T00370004  RH  079%=      5-min Rain = 0
KLE1 230538Z 11005KT 04/00 A301 RMK A01 T00370004  RH  079%=      5-min Rain = 0
KLE1 230539Z 11005KT 04/00 A301 RMK A01 T00360003  RH  079%=      5-min Rain = 0
KLE1 230540Z 11005KT 04/00 A301 RMK A01 T00370004  RH  080%=      5-min Rain = 0
KLE1 230541Z 11004KT 04/00 A301 RMK A01 T00360004  RH  079%=      5-min Rain = 0
KLE1 230542Z 10004KT 04/01 A301 RMK A01 T00360005  RH  080%=      5-min Rain = 0
KLE1 230543Z 10003KT 04/01 A3011 RMK A01 T00360006  RH  080%=      5-min Rain = 0
KLE1 230544Z 10004KT 04/01 A3011 RMK A01 T00360007  RH  081%=      5-min Rain = 0
KLE1 230545Z 10005KT 04/01 A301 RMK A01 T00360006  RH  081%=      5-min Rain = 0
KLE1 230546Z 11005KT 04/01 A301 RMK A01 T00370005  RH  080%=      5-min Rain = 0
KLE1 230547Z 11005KT 04/00 A301 RMK A01 T00360004  RH  079%=      5-min Rain = 0
KLE1 230548Z 11005KT 04/00 A301 RMK A01 T00360003  RH  079%=      5-min Rain = 0
KLE1 230549Z 11005KT 04/00 A301 RMK A01 T00360004  RH  079%=      5-min Rain = 0
KLE1 230550Z 10004KT 04/00 A301 RMK A01 T00360004  RH  080%=      5-min Rain = 0
KLE1 230551Z 09004KT 04/01 A301 RMK A01 T00360006  RH  080%=      5-min Rain = 0
KLE1 230552Z 09004KT 04/01 A301 RMK A01 T00360006  RH  080%=      5-min Rain = 0
KLE1 230553Z 09004KT 04/01 A3011 RMK A01 T00360005  RH  080%=      5-min Rain = 0
KLE1 230554Z 09004KT 04/00 A3011 RMK A01 T00360004  RH  079%=      5-min Rain = 0
KLE1 230555Z 09005KT 04/00 A3011 RMK A01 T00360004  RH  080%=      5-min Rain = 0
KLE1 230556Z 09004KT 04/00 A3011 RMK A01 T00360004  RH  079%=      5-min Rain = 0
KLE1 230557Z 09004KT 04/00 A3011 RMK A01 T00360004  RH  079%=      5-min Rain = 0
KLE1 230558Z 09004KT 04/00 A3011 RMK A01 T00360003  RH  079%=      5-min Rain = 0
KLE1 230559Z 09004KT 04/00 A3011 RMK A01 T00360004  RH  080%=      5-min Rain = 0

Page generated in 0.0989 seconds.